<?xml version="1.0" encoding="UTF-8" standalone="no" ?>
<gpx xmlns="http://www.topografix.com/GPX/1/1" xmlns:xsi="http://www.w3.org/2001/XMLSchema-instance" xsi:schemaLocation="http://www.topografix.com/GPX/1/1 http://www.topografix.com/GPX/1/1/gpx.xsd" version="1.1" creator="VisuGPX - https://www.visugpx.com">
  <metadata>
    <name>15-le puy mary (départ Benech)</name>
  </metadata>
  <trk>
    <name><![CDATA[15-le puy mary (départ Benech)_1]]></name>
    <trkseg>
      <trkpt lat="45.09413" lon="2.66322">
        <ele>1244.3</ele>
      </trkpt>
      <trkpt lat="45.09403" lon="2.66339">
        <ele>1239</ele>
      </trkpt>
      <trkpt lat="45.09402" lon="2.66355">
        <ele>1236.6</ele>
      </trkpt>
      <trkpt lat="45.09404" lon="2.66368">
        <ele>1235.3</ele>
      </trkpt>
      <trkpt lat="45.09399" lon="2.66387">
        <ele>1230</ele>
      </trkpt>
      <trkpt lat="45.09399" lon="2.66399">
        <ele>1227.5</ele>
      </trkpt>
      <trkpt lat="45.09406" lon="2.6641">
        <ele>1227.2</ele>
      </trkpt>
      <trkpt lat="45.09411" lon="2.66426">
        <ele>1225.2</ele>
      </trkpt>
      <trkpt lat="45.0941" lon="2.66443">
        <ele>1222.1</ele>
      </trkpt>
      <trkpt lat="45.09403" lon="2.66449">
        <ele>1219.9</ele>
      </trkpt>
      <trkpt lat="45.09391" lon="2.66451">
        <ele>1217.5</ele>
      </trkpt>
      <trkpt lat="45.09382" lon="2.66453">
        <ele>1215.1</ele>
      </trkpt>
      <trkpt lat="45.09368" lon="2.66465">
        <ele>1210.9</ele>
      </trkpt>
      <trkpt lat="45.09362" lon="2.66471">
        <ele>1209.3</ele>
      </trkpt>
      <trkpt lat="45.09353" lon="2.66471">
        <ele>1207.9</ele>
      </trkpt>
      <trkpt lat="45.09345" lon="2.66468">
        <ele>1206.8</ele>
      </trkpt>
      <trkpt lat="45.09338" lon="2.66472">
        <ele>1205.7</ele>
      </trkpt>
      <trkpt lat="45.09342" lon="2.66482">
        <ele>1204.9</ele>
      </trkpt>
      <trkpt lat="45.09343" lon="2.66484">
        <ele>1221.67</ele>
        <time>2022-07-11T15:07:44Z</time>
      </trkpt>
      <trkpt lat="45.0939" lon="2.66625">
        <ele>1186.2</ele>
      </trkpt>
      <trkpt lat="45.09313" lon="2.66635">
        <ele>1171.2</ele>
      </trkpt>
      <trkpt lat="45.09235" lon="2.66607">
        <ele>1163.2</ele>
      </trkpt>
      <trkpt lat="45.09152" lon="2.66625">
        <ele>1147.7</ele>
      </trkpt>
      <trkpt lat="45.09067" lon="2.6664">
        <ele>1127.2</ele>
      </trkpt>
      <trkpt lat="45.09023" lon="2.6664">
        <ele>1115.5</ele>
      </trkpt>
      <trkpt lat="45.09001" lon="2.66616">
        <ele>1106.6</ele>
      </trkpt>
      <trkpt lat="45.08975" lon="2.66607">
        <ele>1105.7</ele>
      </trkpt>
      <trkpt lat="45.08938" lon="2.66657">
        <ele>1097</ele>
      </trkpt>
      <trkpt lat="45.0887" lon="2.66612">
        <ele>1087.3</ele>
      </trkpt>
      <trkpt lat="45.08864" lon="2.66682">
        <ele>1086.3</ele>
      </trkpt>
      <trkpt lat="45.08852" lon="2.6673">
        <ele>1084.5</ele>
      </trkpt>
      <trkpt lat="45.08813" lon="2.66727">
        <ele>1093</ele>
      </trkpt>
      <trkpt lat="45.08743" lon="2.66826">
        <ele>1093.6</ele>
      </trkpt>
      <trkpt lat="45.08638" lon="2.66966">
        <ele>1070.9</ele>
      </trkpt>
      <trkpt lat="45.08555" lon="2.66964">
        <ele>1072.5</ele>
      </trkpt>
      <trkpt lat="45.08501" lon="2.67013">
        <ele>1061.9</ele>
      </trkpt>
      <trkpt lat="45.08466" lon="2.67049">
        <ele>1047.5</ele>
      </trkpt>
      <trkpt lat="45.08435" lon="2.67009">
        <ele>1047.3</ele>
      </trkpt>
      <trkpt lat="45.08398" lon="2.66989">
        <ele>1040.8</ele>
      </trkpt>
      <trkpt lat="45.08398" lon="2.67024">
        <ele>1036.4</ele>
      </trkpt>
      <trkpt lat="45.08417" lon="2.6706">
        <ele>1035.3</ele>
      </trkpt>
      <trkpt lat="45.08434" lon="2.67124">
        <ele>1027.4</ele>
      </trkpt>
      <trkpt lat="45.08425" lon="2.67131">
        <ele>1025.8</ele>
      </trkpt>
      <trkpt lat="45.08379" lon="2.67122">
        <ele>1022.8</ele>
      </trkpt>
      <trkpt lat="45.08349" lon="2.67114">
        <ele>1019.6</ele>
      </trkpt>
      <trkpt lat="45.0834" lon="2.67105">
        <ele>1018.8</ele>
      </trkpt>
      <trkpt lat="45.08323" lon="2.67142">
        <ele>1015</ele>
      </trkpt>
      <trkpt lat="45.08315" lon="2.67138">
        <ele>1036.45</ele>
        <time>2022-07-11T08:23:39Z</time>
        <extensions>
          <visugpx:TrkExtension xmlns:visugpx="https://www.visugpx.com/editgpx/">
            <visugpx:node>11</visugpx:node>
            </visugpx:TrkExtension>
        </extensions>
      </trkpt>
      <trkpt lat="45.08314" lon="2.6714">
        <ele>1035.73</ele>
        <time>2022-07-11T08:23:41Z</time>
      </trkpt>
      <trkpt lat="45.08369" lon="2.6738">
        <ele>1019.98</ele>
        <time>2022-07-11T08:26:50Z</time>
      </trkpt>
      <trkpt lat="45.08383" lon="2.67415">
        <ele>1021.52</ele>
        <time>2022-07-11T08:27:12Z</time>
      </trkpt>
      <trkpt lat="45.08385" lon="2.67421">
        <ele>1021.85</ele>
        <time>2022-07-11T08:27:18Z</time>
      </trkpt>
      <trkpt lat="45.08389" lon="2.67439">
        <ele>1022.68</ele>
        <time>2022-07-11T08:28:15Z</time>
      </trkpt>
      <trkpt lat="45.08402" lon="2.67465">
        <ele>1023.36</ele>
        <time>2022-07-11T08:28:31Z</time>
      </trkpt>
      <trkpt lat="45.08414" lon="2.67486">
        <ele>1023.29</ele>
        <time>2022-07-11T08:28:47Z</time>
      </trkpt>
      <trkpt lat="45.08415" lon="2.67494">
        <ele>1023.55</ele>
        <time>2022-07-11T08:28:54Z</time>
      </trkpt>
      <trkpt lat="45.08383" lon="2.67549">
        <ele>1022.08</ele>
        <time>2022-07-11T08:31:11Z</time>
      </trkpt>
      <trkpt lat="45.0838" lon="2.67561">
        <ele>1021.6</ele>
        <time>2022-07-11T08:31:18Z</time>
      </trkpt>
      <trkpt lat="45.08376" lon="2.67584">
        <ele>1021.3</ele>
        <time>2022-07-11T08:31:30Z</time>
      </trkpt>
      <trkpt lat="45.08376" lon="2.67593">
        <ele>1021.28</ele>
        <time>2022-07-11T08:31:34Z</time>
      </trkpt>
      <trkpt lat="45.08378" lon="2.67599">
        <ele>1021.23</ele>
        <time>2022-07-11T08:31:37Z</time>
      </trkpt>
      <trkpt lat="45.08376" lon="2.6761">
        <ele>1021</ele>
        <time>2022-07-11T08:31:44Z</time>
      </trkpt>
      <trkpt lat="45.08377" lon="2.67616">
        <ele>1020.83</ele>
        <time>2022-07-11T08:31:48Z</time>
      </trkpt>
      <trkpt lat="45.0838" lon="2.6763">
        <ele>1020.11</ele>
        <time>2022-07-11T08:31:56Z</time>
      </trkpt>
      <trkpt lat="45.08381" lon="2.6764">
        <ele>1020.01</ele>
        <time>2022-07-11T08:31:59Z</time>
      </trkpt>
      <trkpt lat="45.08382" lon="2.67645">
        <ele>1019.98</ele>
        <time>2022-07-11T08:32:02Z</time>
      </trkpt>
      <trkpt lat="45.08376" lon="2.67659">
        <ele>1020.58</ele>
        <time>2022-07-11T08:32:14Z</time>
      </trkpt>
      <trkpt lat="45.08371" lon="2.67673">
        <ele>1020.9</ele>
        <time>2022-07-11T08:32:25Z</time>
      </trkpt>
      <trkpt lat="45.08369" lon="2.67677">
        <ele>1021.38</ele>
        <time>2022-07-11T08:32:28Z</time>
      </trkpt>
      <trkpt lat="45.08369" lon="2.67685">
        <ele>1022.89</ele>
        <time>2022-07-11T08:32:35Z</time>
      </trkpt>
      <trkpt lat="45.08378" lon="2.67694">
        <ele>1025.67</ele>
        <time>2022-07-11T08:32:48Z</time>
      </trkpt>
      <trkpt lat="45.08379" lon="2.67695">
        <ele>1025.86</ele>
        <time>2022-07-11T08:32:49Z</time>
      </trkpt>
      <trkpt lat="45.08391" lon="2.67711">
        <ele>1027.74</ele>
        <time>2022-07-11T08:33:02Z</time>
      </trkpt>
      <trkpt lat="45.08396" lon="2.67725">
        <ele>1029.67</ele>
        <time>2022-07-11T08:33:14Z</time>
      </trkpt>
      <trkpt lat="45.084" lon="2.67744">
        <ele>1031.84</ele>
        <time>2022-07-11T08:33:30Z</time>
      </trkpt>
      <trkpt lat="45.08405" lon="2.67759">
        <ele>1033.04</ele>
        <time>2022-07-11T08:33:41Z</time>
      </trkpt>
      <trkpt lat="45.08409" lon="2.67765">
        <ele>1033.32</ele>
        <time>2022-07-11T08:33:44Z</time>
      </trkpt>
      <trkpt lat="45.0841" lon="2.67781">
        <ele>1034.54</ele>
        <time>2022-07-11T08:33:54Z</time>
      </trkpt>
      <trkpt lat="45.0841" lon="2.67786">
        <ele>1035.12</ele>
        <time>2022-07-11T08:33:57Z</time>
      </trkpt>
      <trkpt lat="45.08409" lon="2.67792">
        <ele>1036.77</ele>
        <time>2022-07-11T08:34:06Z</time>
      </trkpt>
      <trkpt lat="45.08408" lon="2.67794">
        <ele>1037.3</ele>
        <time>2022-07-11T08:34:10Z</time>
      </trkpt>
      <trkpt lat="45.08418" lon="2.67821">
        <ele>1038.79</ele>
        <time>2022-07-11T08:34:31Z</time>
      </trkpt>
      <trkpt lat="45.0842" lon="2.67825">
        <ele>1039.09</ele>
        <time>2022-07-11T08:34:33Z</time>
      </trkpt>
      <trkpt lat="45.08422" lon="2.67828">
        <ele>1039.41</ele>
        <time>2022-07-11T08:34:35Z</time>
      </trkpt>
      <trkpt lat="45.08423" lon="2.67837">
        <ele>1039.86</ele>
        <time>2022-07-11T08:34:41Z</time>
      </trkpt>
      <trkpt lat="45.08425" lon="2.67844">
        <ele>1040.42</ele>
        <time>2022-07-11T08:34:46Z</time>
      </trkpt>
      <trkpt lat="45.0843" lon="2.67853">
        <ele>1041.47</ele>
        <time>2022-07-11T08:34:56Z</time>
      </trkpt>
      <trkpt lat="45.08436" lon="2.67864">
        <ele>1042.15</ele>
        <time>2022-07-11T08:35:02Z</time>
      </trkpt>
      <trkpt lat="45.08463" lon="2.6789">
        <ele>1044.31</ele>
        <time>2022-07-11T08:35:30Z</time>
      </trkpt>
      <trkpt lat="45.08482" lon="2.67914">
        <ele>1045.49</ele>
        <time>2022-07-11T08:35:52Z</time>
      </trkpt>
      <trkpt lat="45.08498" lon="2.67928">
        <ele>1047.25</ele>
        <time>2022-07-11T08:36:07Z</time>
      </trkpt>
      <trkpt lat="45.0851" lon="2.67948">
        <ele>1050.26</ele>
        <time>2022-07-11T08:36:22Z</time>
      </trkpt>
      <trkpt lat="45.08521" lon="2.67974">
        <ele>1052.17</ele>
        <time>2022-07-11T08:36:40Z</time>
      </trkpt>
      <trkpt lat="45.08525" lon="2.67986">
        <ele>1052.74</ele>
        <time>2022-07-11T08:36:50Z</time>
      </trkpt>
      <trkpt lat="45.08528" lon="2.67992">
        <ele>1052.78</ele>
        <time>2022-07-11T08:36:56Z</time>
      </trkpt>
      <trkpt lat="45.08535" lon="2.68015">
        <ele>1053</ele>
        <time>2022-07-11T08:37:11Z</time>
      </trkpt>
      <trkpt lat="45.08538" lon="2.68034">
        <ele>1053.5</ele>
        <time>2022-07-11T08:37:24Z</time>
      </trkpt>
      <trkpt lat="45.0854" lon="2.68051">
        <ele>1053.69</ele>
        <time>2022-07-11T08:37:32Z</time>
      </trkpt>
      <trkpt lat="45.08625" lon="2.682">
        <ele>1058.87</ele>
        <time>2022-07-11T08:39:13Z</time>
      </trkpt>
      <trkpt lat="45.08629" lon="2.6821">
        <ele>1059.23</ele>
        <time>2022-07-11T08:39:20Z</time>
      </trkpt>
      <trkpt lat="45.0863" lon="2.68212">
        <ele>1059.31</ele>
        <time>2022-07-11T08:39:21Z</time>
      </trkpt>
      <trkpt lat="45.08631" lon="2.68218">
        <ele>1059.64</ele>
        <time>2022-07-11T08:39:25Z</time>
      </trkpt>
      <trkpt lat="45.08632" lon="2.68226">
        <ele>1060.18</ele>
        <time>2022-07-11T08:39:30Z</time>
      </trkpt>
      <trkpt lat="45.08633" lon="2.6823">
        <ele>1060.39</ele>
        <time>2022-07-11T08:39:32Z</time>
      </trkpt>
      <trkpt lat="45.08634" lon="2.68236">
        <ele>1060.63</ele>
        <time>2022-07-11T08:39:36Z</time>
      </trkpt>
      <trkpt lat="45.08636" lon="2.68245">
        <ele>1061.82</ele>
        <time>2022-07-11T08:39:42Z</time>
      </trkpt>
      <trkpt lat="45.08637" lon="2.68254">
        <ele>1062.66</ele>
        <time>2022-07-11T08:39:48Z</time>
      </trkpt>
      <trkpt lat="45.08638" lon="2.68259">
        <ele>1063.08</ele>
        <time>2022-07-11T08:39:51Z</time>
      </trkpt>
      <trkpt lat="45.0864" lon="2.68267">
        <ele>1063.65</ele>
        <time>2022-07-11T08:39:55Z</time>
      </trkpt>
      <trkpt lat="45.08641" lon="2.68287">
        <ele>1066.03</ele>
        <time>2022-07-11T08:40:10Z</time>
      </trkpt>
      <trkpt lat="45.08642" lon="2.68289">
        <ele>1066.25</ele>
        <time>2022-07-11T08:40:12Z</time>
      </trkpt>
      <trkpt lat="45.08643" lon="2.68297">
        <ele>1067.25</ele>
        <time>2022-07-11T08:40:17Z</time>
      </trkpt>
      <trkpt lat="45.08645" lon="2.68305">
        <ele>1068.23</ele>
        <time>2022-07-11T08:40:23Z</time>
      </trkpt>
      <trkpt lat="45.08647" lon="2.68325">
        <ele>1070.28</ele>
        <time>2022-07-11T08:40:38Z</time>
      </trkpt>
      <trkpt lat="45.08648" lon="2.68328">
        <ele>1070.57</ele>
        <time>2022-07-11T08:40:41Z</time>
      </trkpt>
      <trkpt lat="45.08647" lon="2.68352">
        <ele>1072.19</ele>
        <time>2022-07-11T08:40:57Z</time>
      </trkpt>
      <trkpt lat="45.08647" lon="2.68369">
        <ele>1073.02</ele>
        <time>2022-07-11T08:41:06Z</time>
      </trkpt>
      <trkpt lat="45.08645" lon="2.68379">
        <ele>1073.66</ele>
        <time>2022-07-11T08:41:15Z</time>
      </trkpt>
      <trkpt lat="45.08644" lon="2.68381">
        <ele>1074.03</ele>
        <time>2022-07-11T08:41:18Z</time>
      </trkpt>
      <trkpt lat="45.08634" lon="2.68672">
        <ele>1092.82</ele>
        <time>2022-07-11T08:44:35Z</time>
      </trkpt>
      <trkpt lat="45.08632" lon="2.68674">
        <ele>1093.09</ele>
        <time>2022-07-11T08:44:41Z</time>
      </trkpt>
      <trkpt lat="45.08639" lon="2.68676">
        <ele>1093.52</ele>
        <time>2022-07-11T08:44:52Z</time>
      </trkpt>
      <trkpt lat="45.0864" lon="2.68672">
        <ele>1093.6</ele>
        <time>2022-07-11T08:44:56Z</time>
      </trkpt>
      <trkpt lat="45.08643" lon="2.68666">
        <ele>1093.55</ele>
        <time>2022-07-11T08:45:02Z</time>
      </trkpt>
      <trkpt lat="45.08636" lon="2.6865">
        <ele>1092.89</ele>
        <time>2022-07-11T08:45:14Z</time>
      </trkpt>
      <trkpt lat="45.0863" lon="2.68657">
        <ele>1093.58</ele>
        <time>2022-07-11T08:45:37Z</time>
      </trkpt>
      <trkpt lat="45.0863" lon="2.68659">
        <ele>1093.61</ele>
        <time>2022-07-11T08:45:40Z</time>
      </trkpt>
      <trkpt lat="45.08633" lon="2.68662">
        <ele>1093.63</ele>
        <time>2022-07-11T08:45:49Z</time>
      </trkpt>
      <trkpt lat="45.08607" lon="2.68591">
        <ele>1096.29</ele>
        <time>2022-07-11T08:47:06Z</time>
      </trkpt>
      <trkpt lat="45.08605" lon="2.68583">
        <ele>1097.1</ele>
        <time>2022-07-11T08:47:14Z</time>
      </trkpt>
      <trkpt lat="45.08606" lon="2.68583">
        <ele>1097.61</ele>
        <time>2022-07-11T08:47:19Z</time>
      </trkpt>
      <trkpt lat="45.08572" lon="2.684">
        <ele>1109.59</ele>
        <time>2022-07-11T08:49:27Z</time>
      </trkpt>
      <trkpt lat="45.08568" lon="2.68384">
        <ele>1111.5</ele>
        <time>2022-07-11T08:49:39Z</time>
      </trkpt>
      <trkpt lat="45.08566" lon="2.68377">
        <ele>1112.72</ele>
        <time>2022-07-11T08:49:47Z</time>
      </trkpt>
      <trkpt lat="45.08529" lon="2.68321">
        <ele>1120.71</ele>
        <time>2022-07-11T08:50:42Z</time>
      </trkpt>
      <trkpt lat="45.08525" lon="2.68309">
        <ele>1122.8</ele>
        <time>2022-07-11T08:50:57Z</time>
      </trkpt>
      <trkpt lat="45.08514" lon="2.68298">
        <ele>1124.8</ele>
        <time>2022-07-11T08:51:17Z</time>
      </trkpt>
      <trkpt lat="45.08509" lon="2.68292">
        <ele>1125.6</ele>
        <time>2022-07-11T08:51:25Z</time>
      </trkpt>
      <trkpt lat="45.08504" lon="2.68286">
        <ele>1126.5</ele>
        <time>2022-07-11T08:51:33Z</time>
      </trkpt>
      <trkpt lat="45.08495" lon="2.68276">
        <ele>1127.63</ele>
        <time>2022-07-11T08:51:40Z</time>
      </trkpt>
      <trkpt lat="45.08439" lon="2.68526">
        <ele>1178.26</ele>
        <time>2022-07-11T08:58:44Z</time>
      </trkpt>
      <trkpt lat="45.08437" lon="2.6853">
        <ele>1177.58</ele>
        <time>2022-07-11T08:58:47Z</time>
      </trkpt>
      <trkpt lat="45.08433" lon="2.68542">
        <ele>1177.41</ele>
        <time>2022-07-11T08:58:55Z</time>
      </trkpt>
      <trkpt lat="45.08436" lon="2.68553">
        <ele>1178.52</ele>
        <time>2022-07-11T08:59:04Z</time>
      </trkpt>
      <trkpt lat="45.08434" lon="2.68561">
        <ele>1179.04</ele>
        <time>2022-07-11T08:59:12Z</time>
      </trkpt>
      <trkpt lat="45.08456" lon="2.68593">
        <ele>1183.42</ele>
        <time>2022-07-11T09:00:50Z</time>
      </trkpt>
      <trkpt lat="45.08451" lon="2.68593">
        <ele>1183.1</ele>
        <time>2022-07-11T09:00:51Z</time>
      </trkpt>
      <trkpt lat="45.08436" lon="2.68593">
        <ele>1184.65</ele>
        <time>2022-07-11T09:01:15Z</time>
      </trkpt>
      <trkpt lat="45.08435" lon="2.68596">
        <ele>1184.55</ele>
        <time>2022-07-11T09:01:21Z</time>
      </trkpt>
      <trkpt lat="45.08328" lon="2.68959">
        <ele>1209.33</ele>
        <time>2022-07-11T09:08:36Z</time>
      </trkpt>
      <trkpt lat="45.08328" lon="2.68961">
        <ele>1209.53</ele>
        <time>2022-07-11T09:08:37Z</time>
      </trkpt>
      <trkpt lat="45.08336" lon="2.68995">
        <ele>1211.87</ele>
        <time>2022-07-11T09:08:58Z</time>
      </trkpt>
      <trkpt lat="45.08346" lon="2.69023">
        <ele>1214.76</ele>
        <time>2022-07-11T09:09:18Z</time>
      </trkpt>
      <trkpt lat="45.08359" lon="2.69033">
        <ele>1216.84</ele>
        <time>2022-07-11T09:09:35Z</time>
      </trkpt>
      <trkpt lat="45.08365" lon="2.69036">
        <ele>1219.31</ele>
        <time>2022-07-11T09:09:48Z</time>
      </trkpt>
      <trkpt lat="45.08359" lon="2.69057">
        <ele>1220.17</ele>
        <time>2022-07-11T09:09:57Z</time>
      </trkpt>
      <trkpt lat="45.08364" lon="2.69065">
        <ele>1221.09</ele>
        <time>2022-07-11T09:10:17Z</time>
      </trkpt>
      <trkpt lat="45.08367" lon="2.69067">
        <ele>1221.95</ele>
        <time>2022-07-11T09:10:23Z</time>
      </trkpt>
      <trkpt lat="45.08374" lon="2.69072">
        <ele>1224.16</ele>
        <time>2022-07-11T09:10:40Z</time>
      </trkpt>
      <trkpt lat="45.08377" lon="2.6908">
        <ele>1226.4</ele>
        <time>2022-07-11T09:10:52Z</time>
      </trkpt>
      <trkpt lat="45.08376" lon="2.69084">
        <ele>1226.88</ele>
        <time>2022-07-11T09:10:59Z</time>
      </trkpt>
      <trkpt lat="45.08377" lon="2.69087">
        <ele>1226.96</ele>
        <time>2022-07-11T09:11:03Z</time>
      </trkpt>
      <trkpt lat="45.08379" lon="2.69101">
        <ele>1227.43</ele>
        <time>2022-07-11T09:11:28Z</time>
      </trkpt>
      <trkpt lat="45.0838" lon="2.69112">
        <ele>1227.85</ele>
        <time>2022-07-11T09:11:44Z</time>
      </trkpt>
      <trkpt lat="45.08381" lon="2.69122">
        <ele>1227.92</ele>
        <time>2022-07-11T09:11:52Z</time>
      </trkpt>
      <trkpt lat="45.08385" lon="2.69187">
        <ele>1229.32</ele>
        <time>2022-07-11T09:12:28Z</time>
      </trkpt>
      <trkpt lat="45.08386" lon="2.69189">
        <ele>1228.88</ele>
        <time>2022-07-11T09:12:35Z</time>
      </trkpt>
      <trkpt lat="45.08389" lon="2.69172">
        <ele>1228.66</ele>
        <time>2022-07-11T09:12:40Z</time>
      </trkpt>
      <trkpt lat="45.08389" lon="2.69174">
        <ele>1228.46</ele>
        <time>2022-07-11T09:12:53Z</time>
      </trkpt>
      <trkpt lat="45.08391" lon="2.69187">
        <ele>1227.88</ele>
        <time>2022-07-11T09:12:58Z</time>
      </trkpt>
      <trkpt lat="45.08383" lon="2.69218">
        <ele>1227.14</ele>
        <time>2022-07-11T09:13:13Z</time>
      </trkpt>
      <trkpt lat="45.08383" lon="2.69229">
        <ele>1227.12</ele>
        <time>2022-07-11T09:13:18Z</time>
      </trkpt>
      <trkpt lat="45.0837" lon="2.69236">
        <ele>1230.66</ele>
        <time>2022-07-11T09:13:43Z</time>
      </trkpt>
      <trkpt lat="45.08365" lon="2.69242">
        <ele>1231.63</ele>
        <time>2022-07-11T09:13:51Z</time>
      </trkpt>
      <trkpt lat="45.08359" lon="2.69257">
        <ele>1233.3</ele>
        <time>2022-07-11T09:14:03Z</time>
      </trkpt>
      <trkpt lat="45.08263" lon="2.6933">
        <ele>1251.32</ele>
        <time>2022-07-11T09:17:02Z</time>
      </trkpt>
      <trkpt lat="45.08261" lon="2.69331">
        <ele>1251.47</ele>
        <time>2022-07-11T09:17:03Z</time>
      </trkpt>
      <trkpt lat="45.08253" lon="2.69333">
        <ele>1252.81</ele>
        <time>2022-07-11T09:17:11Z</time>
      </trkpt>
      <trkpt lat="45.08245" lon="2.69341">
        <ele>1254.4</ele>
        <time>2022-07-11T09:17:19Z</time>
      </trkpt>
      <trkpt lat="45.08241" lon="2.69355">
        <ele>1256.12</ele>
        <time>2022-07-11T09:17:29Z</time>
      </trkpt>
      <trkpt lat="45.08228" lon="2.69362">
        <ele>1258.01</ele>
        <time>2022-07-11T09:17:39Z</time>
      </trkpt>
      <trkpt lat="45.08223" lon="2.69372">
        <ele>1259.36</ele>
        <time>2022-07-11T09:17:47Z</time>
      </trkpt>
      <trkpt lat="45.08221" lon="2.69376">
        <ele>1260.17</ele>
        <time>2022-07-11T09:17:51Z</time>
      </trkpt>
      <trkpt lat="45.08218" lon="2.69378">
        <ele>1260.47</ele>
        <time>2022-07-11T09:17:53Z</time>
      </trkpt>
      <trkpt lat="45.08215" lon="2.6938">
        <ele>1260.77</ele>
        <time>2022-07-11T09:17:55Z</time>
      </trkpt>
      <trkpt lat="45.08213" lon="2.69383">
        <ele>1261.17</ele>
        <time>2022-07-11T09:17:57Z</time>
      </trkpt>
      <trkpt lat="45.08207" lon="2.69387">
        <ele>1262.3</ele>
        <time>2022-07-11T09:18:02Z</time>
      </trkpt>
      <trkpt lat="45.08206" lon="2.694">
        <ele>1263.11</ele>
        <time>2022-07-11T09:18:11Z</time>
      </trkpt>
      <trkpt lat="45.08201" lon="2.69401">
        <ele>1263.33</ele>
        <time>2022-07-11T09:18:15Z</time>
      </trkpt>
      <trkpt lat="45.08189" lon="2.69402">
        <ele>1263.28</ele>
        <time>2022-07-11T09:18:24Z</time>
      </trkpt>
      <trkpt lat="45.08183" lon="2.69407">
        <ele>1263.17</ele>
        <time>2022-07-11T09:18:30Z</time>
      </trkpt>
      <trkpt lat="45.08174" lon="2.69414">
        <ele>1263.44</ele>
        <time>2022-07-11T09:18:38Z</time>
      </trkpt>
      <trkpt lat="45.08174" lon="2.69415">
        <ele>1263.59</ele>
        <time>2022-07-11T09:18:41Z</time>
      </trkpt>
      <trkpt lat="45.08171" lon="2.69419">
        <ele>1264.58</ele>
        <time>2022-07-11T09:18:47Z</time>
      </trkpt>
      <trkpt lat="45.08161" lon="2.69429">
        <ele>1266.74</ele>
        <time>2022-07-11T09:18:58Z</time>
      </trkpt>
      <trkpt lat="45.08156" lon="2.69436">
        <ele>1267.84</ele>
        <time>2022-07-11T09:19:03Z</time>
      </trkpt>
      <trkpt lat="45.0815" lon="2.69455">
        <ele>1269.7</ele>
        <time>2022-07-11T09:19:16Z</time>
      </trkpt>
      <trkpt lat="45.08143" lon="2.69466">
        <ele>1270.97</ele>
        <time>2022-07-11T09:19:26Z</time>
      </trkpt>
      <trkpt lat="45.08141" lon="2.69468">
        <ele>1271.3</ele>
        <time>2022-07-11T09:19:28Z</time>
      </trkpt>
      <trkpt lat="45.08139" lon="2.6947">
        <ele>1271.91</ele>
        <time>2022-07-11T09:19:30Z</time>
      </trkpt>
      <trkpt lat="45.08134" lon="2.69472">
        <ele>1273.53</ele>
        <time>2022-07-11T09:19:36Z</time>
      </trkpt>
      <trkpt lat="45.0813" lon="2.6948">
        <ele>1274.57</ele>
        <time>2022-07-11T09:19:41Z</time>
      </trkpt>
      <trkpt lat="45.0813" lon="2.69485">
        <ele>1274.96</ele>
        <time>2022-07-11T09:19:44Z</time>
      </trkpt>
      <trkpt lat="45.08129" lon="2.69493">
        <ele>1275.83</ele>
        <time>2022-07-11T09:19:50Z</time>
      </trkpt>
      <trkpt lat="45.08125" lon="2.695">
        <ele>1276.4</ele>
        <time>2022-07-11T09:19:55Z</time>
      </trkpt>
      <trkpt lat="45.08121" lon="2.69503">
        <ele>1276.97</ele>
        <time>2022-07-11T09:19:59Z</time>
      </trkpt>
      <trkpt lat="45.08117" lon="2.69511">
        <ele>1278.21</ele>
        <time>2022-07-11T09:20:04Z</time>
      </trkpt>
      <trkpt lat="45.08114" lon="2.69516">
        <ele>1278.66</ele>
        <time>2022-07-11T09:20:08Z</time>
      </trkpt>
      <trkpt lat="45.08108" lon="2.69529">
        <ele>1280.59</ele>
        <time>2022-07-11T09:20:20Z</time>
      </trkpt>
      <trkpt lat="45.08103" lon="2.69539">
        <ele>1282.36</ele>
        <time>2022-07-11T09:20:31Z</time>
      </trkpt>
      <trkpt lat="45.08095" lon="2.69548">
        <ele>1283.74</ele>
        <time>2022-07-11T09:20:39Z</time>
      </trkpt>
      <trkpt lat="45.08089" lon="2.69565">
        <ele>1286.3</ele>
        <time>2022-07-11T09:20:52Z</time>
      </trkpt>
      <trkpt lat="45.08081" lon="2.69585">
        <ele>1288.34</ele>
        <time>2022-07-11T09:21:08Z</time>
      </trkpt>
      <trkpt lat="45.08081" lon="2.69596">
        <ele>1289.55</ele>
        <time>2022-07-11T09:21:19Z</time>
      </trkpt>
      <trkpt lat="45.0808" lon="2.69598">
        <ele>1289.99</ele>
        <time>2022-07-11T09:21:23Z</time>
      </trkpt>
      <trkpt lat="45.08053" lon="2.69863">
        <ele>1321.26</ele>
        <time>2022-07-11T09:24:52Z</time>
      </trkpt>
      <trkpt lat="45.08054" lon="2.69873">
        <ele>1322.94</ele>
        <time>2022-07-11T09:25:00Z</time>
      </trkpt>
      <trkpt lat="45.08056" lon="2.69879">
        <ele>1325.07</ele>
        <time>2022-07-11T09:25:12Z</time>
      </trkpt>
      <trkpt lat="45.08051" lon="2.69884">
        <ele>1327.51</ele>
        <time>2022-07-11T09:25:26Z</time>
      </trkpt>
      <trkpt lat="45.08046" lon="2.69894">
        <ele>1327.77</ele>
        <time>2022-07-11T09:25:34Z</time>
      </trkpt>
      <trkpt lat="45.08044" lon="2.69898">
        <ele>1327.96</ele>
        <time>2022-07-11T09:25:38Z</time>
      </trkpt>
      <trkpt lat="45.0804" lon="2.69901">
        <ele>1328.47</ele>
        <time>2022-07-11T09:25:42Z</time>
      </trkpt>
      <trkpt lat="45.08036" lon="2.69903">
        <ele>1329.64</ele>
        <time>2022-07-11T09:25:47Z</time>
      </trkpt>
      <trkpt lat="45.08034" lon="2.69904">
        <ele>1329.85</ele>
        <time>2022-07-11T09:25:48Z</time>
      </trkpt>
      <trkpt lat="45.08033" lon="2.69905">
        <ele>1330</ele>
        <time>2022-07-11T09:25:49Z</time>
      </trkpt>
      <trkpt lat="45.08032" lon="2.69905">
        <ele>1330.19</ele>
        <time>2022-07-11T09:25:50Z</time>
      </trkpt>
      <trkpt lat="45.08031" lon="2.69905">
        <ele>1330.31</ele>
        <time>2022-07-11T09:25:51Z</time>
      </trkpt>
      <trkpt lat="45.0803" lon="2.69904">
        <ele>1330.42</ele>
        <time>2022-07-11T09:25:52Z</time>
      </trkpt>
      <trkpt lat="45.08031" lon="2.69901">
        <ele>1330.6</ele>
        <time>2022-07-11T09:25:53Z</time>
      </trkpt>
      <trkpt lat="45.0803" lon="2.69899">
        <ele>1331.19</ele>
        <time>2022-07-11T09:25:57Z</time>
      </trkpt>
      <trkpt lat="45.08024" lon="2.69901">
        <ele>1331.72</ele>
        <time>2022-07-11T09:26:08Z</time>
      </trkpt>
      <trkpt lat="45.08014" lon="2.69915">
        <ele>1331.83</ele>
        <time>2022-07-11T09:26:16Z</time>
      </trkpt>
      <trkpt lat="45.08013" lon="2.69917">
        <ele>1331.83</ele>
        <time>2022-07-11T09:26:17Z</time>
      </trkpt>
      <trkpt lat="45.08012" lon="2.69919">
        <ele>1331.84</ele>
        <time>2022-07-11T09:26:18Z</time>
      </trkpt>
      <trkpt lat="45.08003" lon="2.69933">
        <ele>1333.56</ele>
        <time>2022-07-11T09:26:31Z</time>
      </trkpt>
      <trkpt lat="45.07998" lon="2.69942">
        <ele>1335.79</ele>
        <time>2022-07-11T09:26:44Z</time>
      </trkpt>
      <trkpt lat="45.07996" lon="2.69942">
        <ele>1335.88</ele>
        <time>2022-07-11T09:26:45Z</time>
      </trkpt>
      <trkpt lat="45.07995" lon="2.69942">
        <ele>1336.06</ele>
        <time>2022-07-11T09:26:46Z</time>
      </trkpt>
      <trkpt lat="45.07995" lon="2.6994">
        <ele>1336.26</ele>
        <time>2022-07-11T09:26:47Z</time>
      </trkpt>
      <trkpt lat="45.07994" lon="2.69941">
        <ele>1336.39</ele>
        <time>2022-07-11T09:26:48Z</time>
      </trkpt>
      <trkpt lat="45.07993" lon="2.69941">
        <ele>1336.54</ele>
        <time>2022-07-11T09:26:49Z</time>
      </trkpt>
      <trkpt lat="45.07985" lon="2.69953">
        <ele>1338.57</ele>
        <time>2022-07-11T09:27:03Z</time>
      </trkpt>
      <trkpt lat="45.07982" lon="2.69948">
        <ele>1339.38</ele>
        <time>2022-07-11T09:27:08Z</time>
      </trkpt>
      <trkpt lat="45.07976" lon="2.69934">
        <ele>1340.12</ele>
        <time>2022-07-11T09:27:14Z</time>
      </trkpt>
      <trkpt lat="45.07971" lon="2.69923">
        <ele>1340.53</ele>
        <time>2022-07-11T09:27:19Z</time>
      </trkpt>
      <trkpt lat="45.0795" lon="2.69798">
        <ele>1340.59</ele>
        <time>2022-07-11T09:27:29Z</time>
      </trkpt>
      <trkpt lat="45.07953" lon="2.69822">
        <ele>1340.59</ele>
        <time>2022-07-11T09:27:38Z</time>
      </trkpt>
      <trkpt lat="45.07952" lon="2.69864">
        <ele>1343.09</ele>
        <time>2022-07-11T09:27:59Z</time>
      </trkpt>
      <trkpt lat="45.07952" lon="2.69914">
        <ele>1346.23</ele>
        <time>2022-07-11T09:28:22Z</time>
      </trkpt>
      <trkpt lat="45.07952" lon="2.69926">
        <ele>1349.19</ele>
        <time>2022-07-11T09:28:40Z</time>
      </trkpt>
      <trkpt lat="45.08185" lon="2.70221">
        <ele>1441.69</ele>
        <time>2022-07-11T09:39:59Z</time>
      </trkpt>
      <trkpt lat="45.08195" lon="2.7019">
        <ele>1441.75</ele>
        <time>2022-07-11T09:40:11Z</time>
      </trkpt>
      <trkpt lat="45.08191" lon="2.70213">
        <ele>1441.75</ele>
        <time>2022-07-11T09:40:15Z</time>
      </trkpt>
      <trkpt lat="45.08188" lon="2.70232">
        <ele>1441.7</ele>
        <time>2022-07-11T09:40:19Z</time>
      </trkpt>
      <trkpt lat="45.08182" lon="2.70233">
        <ele>1441.58</ele>
        <time>2022-07-11T09:40:24Z</time>
      </trkpt>
      <trkpt lat="45.08176" lon="2.7023">
        <ele>1441.94</ele>
        <time>2022-07-11T09:40:43Z</time>
      </trkpt>
      <trkpt lat="45.08225" lon="2.7028">
        <ele>1454.15</ele>
        <time>2022-07-11T09:43:40Z</time>
      </trkpt>
      <trkpt lat="45.08233" lon="2.7029">
        <ele>1457.46</ele>
        <time>2022-07-11T09:43:55Z</time>
      </trkpt>
      <trkpt lat="45.08238" lon="2.70298">
        <ele>1459.74</ele>
        <time>2022-07-11T09:44:07Z</time>
      </trkpt>
      <trkpt lat="45.08261" lon="2.70355">
        <ele>1472.11</ele>
        <time>2022-07-11T09:47:26Z</time>
      </trkpt>
      <trkpt lat="45.08266" lon="2.70365">
        <ele>1474.62</ele>
        <time>2022-07-11T09:47:39Z</time>
      </trkpt>
      <trkpt lat="45.08268" lon="2.70374">
        <ele>1475.68</ele>
        <time>2022-07-11T09:47:51Z</time>
      </trkpt>
      <trkpt lat="45.08275" lon="2.70413">
        <ele>1480.7</ele>
        <time>2022-07-11T09:49:08Z</time>
      </trkpt>
      <trkpt lat="45.0828" lon="2.70426">
        <ele>1482.53</ele>
        <time>2022-07-11T09:49:18Z</time>
      </trkpt>
      <trkpt lat="45.08285" lon="2.70434">
        <ele>1484.27</ele>
        <time>2022-07-11T09:49:25Z</time>
      </trkpt>
      <trkpt lat="45.08289" lon="2.70448">
        <ele>1486.06</ele>
        <time>2022-07-11T09:49:37Z</time>
      </trkpt>
      <trkpt lat="45.0829" lon="2.70449">
        <ele>1486.81</ele>
        <time>2022-07-11T09:49:42Z</time>
      </trkpt>
      <trkpt lat="45.08289" lon="2.7063">
        <ele>1514.5</ele>
        <time>2022-07-11T09:53:22Z</time>
      </trkpt>
      <trkpt lat="45.08284" lon="2.70641">
        <ele>1517.21</ele>
        <time>2022-07-11T09:53:39Z</time>
      </trkpt>
      <trkpt lat="45.08286" lon="2.70719">
        <ele>1531.09</ele>
        <time>2022-07-11T10:05:52Z</time>
      </trkpt>
      <trkpt lat="45.08285" lon="2.70739">
        <ele>1532.51</ele>
        <time>2022-07-11T10:06:06Z</time>
      </trkpt>
      <trkpt lat="45.08258" lon="2.70847">
        <ele>1550.55</ele>
        <time>2022-07-11T10:07:56Z</time>
      </trkpt>
      <trkpt lat="45.08252" lon="2.70863">
        <ele>1552.61</ele>
        <time>2022-07-11T10:08:08Z</time>
      </trkpt>
      <trkpt lat="45.08251" lon="2.70876">
        <ele>1555.11</ele>
        <time>2022-07-11T10:08:24Z</time>
      </trkpt>
      <trkpt lat="45.08252" lon="2.70878">
        <ele>1555.82</ele>
        <time>2022-07-11T10:09:30Z</time>
      </trkpt>
      <trkpt lat="45.08254" lon="2.70894">
        <ele>1556.15</ele>
        <time>2022-07-11T10:09:38Z</time>
      </trkpt>
      <trkpt lat="45.08256" lon="2.70906">
        <ele>1557.05</ele>
        <time>2022-07-11T10:09:49Z</time>
      </trkpt>
      <trkpt lat="45.08258" lon="2.70913">
        <ele>1557.11</ele>
        <time>2022-07-11T10:09:53Z</time>
      </trkpt>
      <trkpt lat="45.08272" lon="2.70954">
        <ele>1558.59</ele>
        <time>2022-07-11T10:10:18Z</time>
      </trkpt>
      <trkpt lat="45.08278" lon="2.70961">
        <ele>1558.59</ele>
        <time>2022-07-11T10:10:28Z</time>
      </trkpt>
      <trkpt lat="45.08289" lon="2.7097">
        <ele>1557.5</ele>
        <time>2022-07-11T10:10:43Z</time>
      </trkpt>
      <trkpt lat="45.08295" lon="2.70975">
        <ele>1557.11</ele>
        <time>2022-07-11T10:11:29Z</time>
      </trkpt>
      <trkpt lat="45.0832" lon="2.70986">
        <ele>1557.85</ele>
        <time>2022-07-11T10:11:50Z</time>
      </trkpt>
      <trkpt lat="45.0834" lon="2.70998">
        <ele>1557.5</ele>
        <time>2022-07-11T10:12:09Z</time>
      </trkpt>
      <trkpt lat="45.08356" lon="2.71019">
        <ele>1555.41</ele>
        <time>2022-07-11T10:12:27Z</time>
      </trkpt>
      <trkpt lat="45.08357" lon="2.71022">
        <ele>1555.21</ele>
        <time>2022-07-11T10:12:29Z</time>
      </trkpt>
      <trkpt lat="45.08372" lon="2.71048">
        <ele>1553.25</ele>
        <time>2022-07-11T10:12:49Z</time>
      </trkpt>
      <trkpt lat="45.08379" lon="2.7106">
        <ele>1552.38</ele>
        <time>2022-07-11T10:13:02Z</time>
      </trkpt>
      <trkpt lat="45.08386" lon="2.71065">
        <ele>1552.1</ele>
        <time>2022-07-11T10:13:39Z</time>
      </trkpt>
      <trkpt lat="45.08387" lon="2.71066">
        <ele>1552.1</ele>
        <time>2022-07-11T10:13:40Z</time>
      </trkpt>
      <trkpt lat="45.08414" lon="2.71079">
        <ele>1552.01</ele>
        <time>2022-07-11T10:14:02Z</time>
      </trkpt>
      <trkpt lat="45.08441" lon="2.71093">
        <ele>1554.3</ele>
        <time>2022-07-11T10:14:25Z</time>
      </trkpt>
      <trkpt lat="45.08466" lon="2.7111">
        <ele>1553.9</ele>
        <time>2022-07-11T10:14:49Z</time>
      </trkpt>
      <trkpt lat="45.08475" lon="2.71119">
        <ele>1553.87</ele>
        <time>2022-07-11T10:14:59Z</time>
      </trkpt>
      <trkpt lat="45.08486" lon="2.71144">
        <ele>1553.41</ele>
        <time>2022-07-11T10:15:19Z</time>
      </trkpt>
      <trkpt lat="45.08502" lon="2.71166">
        <ele>1552.99</ele>
        <time>2022-07-11T10:15:38Z</time>
      </trkpt>
      <trkpt lat="45.0852" lon="2.71197">
        <ele>1552.26</ele>
        <time>2022-07-11T10:16:01Z</time>
      </trkpt>
      <trkpt lat="45.0854" lon="2.71199">
        <ele>1551.36</ele>
        <time>2022-07-11T10:16:19Z</time>
      </trkpt>
      <trkpt lat="45.08545" lon="2.71202">
        <ele>1551.56</ele>
        <time>2022-07-11T10:16:27Z</time>
      </trkpt>
      <trkpt lat="45.08552" lon="2.71203">
        <ele>1551.83</ele>
        <time>2022-07-11T10:16:32Z</time>
      </trkpt>
      <trkpt lat="45.08582" lon="2.71201">
        <ele>1554.23</ele>
        <time>2022-07-11T10:16:55Z</time>
      </trkpt>
      <trkpt lat="45.08605" lon="2.71206">
        <ele>1553.85</ele>
        <time>2022-07-11T10:17:15Z</time>
      </trkpt>
      <trkpt lat="45.0863" lon="2.71239">
        <ele>1551.6</ele>
        <time>2022-07-11T10:17:41Z</time>
      </trkpt>
      <trkpt lat="45.08646" lon="2.71251">
        <ele>1550.48</ele>
        <time>2022-07-11T10:17:57Z</time>
      </trkpt>
      <trkpt lat="45.08668" lon="2.71269">
        <ele>1549.23</ele>
        <time>2022-07-11T10:18:17Z</time>
      </trkpt>
      <trkpt lat="45.08679" lon="2.71273">
        <ele>1548.99</ele>
        <time>2022-07-11T10:18:26Z</time>
      </trkpt>
      <trkpt lat="45.08686" lon="2.71271">
        <ele>1548.59</ele>
        <time>2022-07-11T10:18:34Z</time>
      </trkpt>
      <trkpt lat="45.08696" lon="2.71263">
        <ele>1548.21</ele>
        <time>2022-07-11T10:19:41Z</time>
      </trkpt>
      <trkpt lat="45.08712" lon="2.71243">
        <ele>1547.65</ele>
        <time>2022-07-11T10:20:03Z</time>
      </trkpt>
      <trkpt lat="45.08712" lon="2.71242">
        <ele>1547.62</ele>
        <time>2022-07-11T10:20:04Z</time>
      </trkpt>
      <trkpt lat="45.08716" lon="2.71237">
        <ele>1547.57</ele>
        <time>2022-07-11T10:20:08Z</time>
      </trkpt>
      <trkpt lat="45.08717" lon="2.71235">
        <ele>1547.57</ele>
        <time>2022-07-11T10:20:09Z</time>
      </trkpt>
      <trkpt lat="45.08732" lon="2.71218">
        <ele>1548.07</ele>
        <time>2022-07-11T10:20:25Z</time>
      </trkpt>
      <trkpt lat="45.08744" lon="2.71213">
        <ele>1549.33</ele>
        <time>2022-07-11T10:20:36Z</time>
      </trkpt>
      <trkpt lat="45.08751" lon="2.71215">
        <ele>1549.92</ele>
        <time>2022-07-11T10:20:49Z</time>
      </trkpt>
      <trkpt lat="45.08756" lon="2.71226">
        <ele>1549.54</ele>
        <time>2022-07-11T10:21:48Z</time>
      </trkpt>
      <trkpt lat="45.08768" lon="2.71255">
        <ele>1546.53</ele>
        <time>2022-07-11T10:22:08Z</time>
      </trkpt>
      <trkpt lat="45.08782" lon="2.71282">
        <ele>1544.35</ele>
        <time>2022-07-11T10:22:27Z</time>
      </trkpt>
      <trkpt lat="45.08784" lon="2.71288">
        <ele>1543.79</ele>
        <time>2022-07-11T10:22:31Z</time>
      </trkpt>
      <trkpt lat="45.08803" lon="2.71309">
        <ele>1540.73</ele>
        <time>2022-07-11T10:22:51Z</time>
      </trkpt>
      <trkpt lat="45.08822" lon="2.71336">
        <ele>1538.23</ele>
        <time>2022-07-11T10:23:11Z</time>
      </trkpt>
      <trkpt lat="45.0884" lon="2.71374">
        <ele>1536.15</ele>
        <time>2022-07-11T10:23:36Z</time>
      </trkpt>
      <trkpt lat="45.0885" lon="2.71402">
        <ele>1533.44</ele>
        <time>2022-07-11T10:23:54Z</time>
      </trkpt>
      <trkpt lat="45.08867" lon="2.71429">
        <ele>1531.35</ele>
        <time>2022-07-11T10:24:15Z</time>
      </trkpt>
      <trkpt lat="45.08878" lon="2.7145">
        <ele>1531.21</ele>
        <time>2022-07-11T10:24:34Z</time>
      </trkpt>
      <trkpt lat="45.08879" lon="2.71451">
        <ele>1531.14</ele>
        <time>2022-07-11T10:24:36Z</time>
      </trkpt>
      <trkpt lat="45.08885" lon="2.71459">
        <ele>1530.52</ele>
        <time>2022-07-11T10:24:43Z</time>
      </trkpt>
      <trkpt lat="45.08889" lon="2.71463">
        <ele>1530.18</ele>
        <time>2022-07-11T10:24:47Z</time>
      </trkpt>
      <trkpt lat="45.08894" lon="2.71468">
        <ele>1529.85</ele>
        <time>2022-07-11T10:24:53Z</time>
      </trkpt>
      <trkpt lat="45.08912" lon="2.71488">
        <ele>1527.88</ele>
        <time>2022-07-11T10:25:12Z</time>
      </trkpt>
      <trkpt lat="45.08915" lon="2.71498">
        <ele>1527.03</ele>
        <time>2022-07-11T10:25:19Z</time>
      </trkpt>
      <trkpt lat="45.08935" lon="2.71518">
        <ele>1524.64</ele>
        <time>2022-07-11T10:25:38Z</time>
      </trkpt>
      <trkpt lat="45.08951" lon="2.71539">
        <ele>1524.5</ele>
        <time>2022-07-11T10:25:56Z</time>
      </trkpt>
      <trkpt lat="45.0897" lon="2.71559">
        <ele>1524.49</ele>
        <time>2022-07-11T10:26:15Z</time>
      </trkpt>
      <trkpt lat="45.08992" lon="2.71588">
        <ele>1524.86</ele>
        <time>2022-07-11T10:26:38Z</time>
      </trkpt>
      <trkpt lat="45.09001" lon="2.716">
        <ele>1524.46</ele>
        <time>2022-07-11T10:26:48Z</time>
      </trkpt>
      <trkpt lat="45.0902" lon="2.71625">
        <ele>1523.48</ele>
        <time>2022-07-11T10:27:07Z</time>
      </trkpt>
      <trkpt lat="45.09036" lon="2.71653">
        <ele>1522.58</ele>
        <time>2022-07-11T10:27:26Z</time>
      </trkpt>
      <trkpt lat="45.09053" lon="2.71669">
        <ele>1523.95</ele>
        <time>2022-07-11T10:27:45Z</time>
      </trkpt>
      <trkpt lat="45.09066" lon="2.71679">
        <ele>1525.7</ele>
        <time>2022-07-11T10:28:01Z</time>
      </trkpt>
      <trkpt lat="45.09067" lon="2.71687">
        <ele>1525.77</ele>
        <time>2022-07-11T10:28:11Z</time>
      </trkpt>
      <trkpt lat="45.09072" lon="2.71696">
        <ele>1524.56</ele>
        <time>2022-07-11T10:28:29Z</time>
      </trkpt>
      <trkpt lat="45.09069" lon="2.71705">
        <ele>1523.77</ele>
        <time>2022-07-11T10:28:36Z</time>
      </trkpt>
      <trkpt lat="45.09067" lon="2.71719">
        <ele>1521.17</ele>
        <time>2022-07-11T10:28:51Z</time>
      </trkpt>
      <trkpt lat="45.09088" lon="2.71722">
        <ele>1515.78</ele>
        <time>2022-07-11T10:30:34Z</time>
      </trkpt>
      <trkpt lat="45.09096" lon="2.71713">
        <ele>1515.57</ele>
        <time>2022-07-11T10:30:47Z</time>
      </trkpt>
      <trkpt lat="45.09107" lon="2.7171">
        <ele>1517.22</ele>
        <time>2022-07-11T10:31:06Z</time>
      </trkpt>
      <trkpt lat="45.09109" lon="2.71709">
        <ele>1517.28</ele>
        <time>2022-07-11T10:31:07Z</time>
      </trkpt>
      <trkpt lat="45.09129" lon="2.71691">
        <ele>1519.25</ele>
        <time>2022-07-11T10:31:20Z</time>
      </trkpt>
      <trkpt lat="45.09137" lon="2.71683">
        <ele>1520.36</ele>
        <time>2022-07-11T10:31:26Z</time>
      </trkpt>
      <trkpt lat="45.09141" lon="2.71695">
        <ele>1520.97</ele>
        <time>2022-07-11T10:31:30Z</time>
      </trkpt>
      <trkpt lat="45.09146" lon="2.71692">
        <ele>1521.23</ele>
        <time>2022-07-11T10:31:36Z</time>
      </trkpt>
      <trkpt lat="45.09149" lon="2.71701">
        <ele>1522.33</ele>
        <time>2022-07-11T10:31:41Z</time>
      </trkpt>
      <trkpt lat="45.09148" lon="2.71701">
        <ele>1522.58</ele>
        <time>2022-07-11T10:31:43Z</time>
      </trkpt>
      <trkpt lat="45.09152" lon="2.717">
        <ele>1522.69</ele>
        <time>2022-07-11T10:31:45Z</time>
      </trkpt>
      <trkpt lat="45.09161" lon="2.71702">
        <ele>1523.19</ele>
        <time>2022-07-11T10:31:52Z</time>
      </trkpt>
      <trkpt lat="45.09195" lon="2.71702">
        <ele>1524.2</ele>
        <time>2022-07-11T10:32:08Z</time>
      </trkpt>
      <trkpt lat="45.09206" lon="2.71688">
        <ele>1525.12</ele>
        <time>2022-07-11T10:32:25Z</time>
      </trkpt>
      <trkpt lat="45.09228" lon="2.71679">
        <ele>1525.9</ele>
        <time>2022-07-11T10:32:45Z</time>
      </trkpt>
      <trkpt lat="45.09243" lon="2.71679">
        <ele>1526.45</ele>
        <time>2022-07-11T10:33:02Z</time>
      </trkpt>
      <trkpt lat="45.09262" lon="2.71679">
        <ele>1528.62</ele>
        <time>2022-07-11T10:33:20Z</time>
      </trkpt>
      <trkpt lat="45.09277" lon="2.71683">
        <ele>1531.74</ele>
        <time>2022-07-11T10:33:37Z</time>
      </trkpt>
      <trkpt lat="45.09279" lon="2.71682">
        <ele>1532.26</ele>
        <time>2022-07-11T10:33:40Z</time>
      </trkpt>
      <trkpt lat="45.09296" lon="2.71685">
        <ele>1535.62</ele>
        <time>2022-07-11T10:33:59Z</time>
      </trkpt>
      <trkpt lat="45.09298" lon="2.71683">
        <ele>1536.74</ele>
        <time>2022-07-11T10:34:05Z</time>
      </trkpt>
      <trkpt lat="45.0932" lon="2.71696">
        <ele>1538.97</ele>
        <time>2022-07-11T10:34:50Z</time>
      </trkpt>
      <trkpt lat="45.09322" lon="2.71698">
        <ele>1539</ele>
        <time>2022-07-11T10:34:52Z</time>
      </trkpt>
      <trkpt lat="45.09338" lon="2.71711">
        <ele>1539.48</ele>
        <time>2022-07-11T10:35:08Z</time>
      </trkpt>
      <trkpt lat="45.0936" lon="2.71721">
        <ele>1539.19</ele>
        <time>2022-07-11T10:35:26Z</time>
      </trkpt>
      <trkpt lat="45.09378" lon="2.71724">
        <ele>1538.95</ele>
        <time>2022-07-11T10:35:40Z</time>
      </trkpt>
      <trkpt lat="45.09395" lon="2.71732">
        <ele>1538.91</ele>
        <time>2022-07-11T10:35:54Z</time>
      </trkpt>
      <trkpt lat="45.09413" lon="2.71744">
        <ele>1539.35</ele>
        <time>2022-07-11T10:36:10Z</time>
      </trkpt>
      <trkpt lat="45.09434" lon="2.71751">
        <ele>1540.26</ele>
        <time>2022-07-11T10:36:29Z</time>
      </trkpt>
      <trkpt lat="45.09455" lon="2.71759">
        <ele>1540.81</ele>
        <time>2022-07-11T10:36:48Z</time>
      </trkpt>
      <trkpt lat="45.09466" lon="2.71763">
        <ele>1541</ele>
        <time>2022-07-11T10:37:03Z</time>
      </trkpt>
      <trkpt lat="45.09473" lon="2.71764">
        <ele>1541.1</ele>
        <time>2022-07-11T10:37:30Z</time>
      </trkpt>
      <trkpt lat="45.09501" lon="2.7177">
        <ele>1541.43</ele>
        <time>2022-07-11T10:37:53Z</time>
      </trkpt>
      <trkpt lat="45.0954" lon="2.71768">
        <ele>1541.9</ele>
        <time>2022-07-11T10:38:24Z</time>
      </trkpt>
      <trkpt lat="45.09543" lon="2.71768">
        <ele>1542.22</ele>
        <time>2022-07-11T10:38:30Z</time>
      </trkpt>
      <trkpt lat="45.09577" lon="2.71761">
        <ele>1540.96</ele>
        <time>2022-07-11T10:39:07Z</time>
      </trkpt>
      <trkpt lat="45.09604" lon="2.71758">
        <ele>1540.74</ele>
        <time>2022-07-11T10:39:29Z</time>
      </trkpt>
      <trkpt lat="45.09621" lon="2.71758">
        <ele>1540.41</ele>
        <time>2022-07-11T10:39:45Z</time>
      </trkpt>
      <trkpt lat="45.09635" lon="2.71758">
        <ele>1540.53</ele>
        <time>2022-07-11T10:39:57Z</time>
      </trkpt>
      <trkpt lat="45.09651" lon="2.7175">
        <ele>1541.12</ele>
        <time>2022-07-11T10:40:13Z</time>
      </trkpt>
      <trkpt lat="45.09657" lon="2.71749">
        <ele>1541.07</ele>
        <time>2022-07-11T10:40:46Z</time>
      </trkpt>
      <trkpt lat="45.09677" lon="2.71741">
        <ele>1542.2</ele>
        <time>2022-07-11T10:41:05Z</time>
      </trkpt>
      <trkpt lat="45.09695" lon="2.71731">
        <ele>1543.07</ele>
        <time>2022-07-11T10:41:21Z</time>
      </trkpt>
      <trkpt lat="45.09714" lon="2.7172">
        <ele>1543.31</ele>
        <time>2022-07-11T10:41:39Z</time>
      </trkpt>
      <trkpt lat="45.09722" lon="2.71718">
        <ele>1543.09</ele>
        <time>2022-07-11T10:41:47Z</time>
      </trkpt>
      <trkpt lat="45.09728" lon="2.71712">
        <ele>1542.87</ele>
        <time>2022-07-11T10:41:54Z</time>
      </trkpt>
      <trkpt lat="45.09746" lon="2.71701">
        <ele>1542.15</ele>
        <time>2022-07-11T10:42:12Z</time>
      </trkpt>
      <trkpt lat="45.09757" lon="2.71701">
        <ele>1542</ele>
        <time>2022-07-11T10:42:22Z</time>
      </trkpt>
      <trkpt lat="45.09774" lon="2.71698">
        <ele>1542.46</ele>
        <time>2022-07-11T10:42:40Z</time>
      </trkpt>
      <trkpt lat="45.0978" lon="2.71694">
        <ele>1541.73</ele>
        <time>2022-07-11T10:42:51Z</time>
      </trkpt>
      <trkpt lat="45.09799" lon="2.71688">
        <ele>1540.59</ele>
        <time>2022-07-11T10:43:07Z</time>
      </trkpt>
      <trkpt lat="45.09815" lon="2.71682">
        <ele>1539.62</ele>
        <time>2022-07-11T10:43:21Z</time>
      </trkpt>
      <trkpt lat="45.09833" lon="2.71679">
        <ele>1539.36</ele>
        <time>2022-07-11T10:43:36Z</time>
      </trkpt>
      <trkpt lat="45.09855" lon="2.71668">
        <ele>1538.39</ele>
        <time>2022-07-11T10:43:55Z</time>
      </trkpt>
      <trkpt lat="45.09874" lon="2.71664">
        <ele>1538.78</ele>
        <time>2022-07-11T10:44:12Z</time>
      </trkpt>
      <trkpt lat="45.09898" lon="2.71659">
        <ele>1538.92</ele>
        <time>2022-07-11T10:44:32Z</time>
      </trkpt>
      <trkpt lat="45.09917" lon="2.71653">
        <ele>1539.3</ele>
        <time>2022-07-11T10:44:50Z</time>
      </trkpt>
      <trkpt lat="45.09937" lon="2.71648">
        <ele>1537.25</ele>
        <time>2022-07-11T10:45:08Z</time>
      </trkpt>
      <trkpt lat="45.09955" lon="2.71648">
        <ele>1535.59</ele>
        <time>2022-07-11T10:45:24Z</time>
      </trkpt>
      <trkpt lat="45.09966" lon="2.71645">
        <ele>1535.04</ele>
        <time>2022-07-11T10:45:34Z</time>
      </trkpt>
      <trkpt lat="45.09988" lon="2.71646">
        <ele>1533.76</ele>
        <time>2022-07-11T10:45:51Z</time>
      </trkpt>
      <trkpt lat="45.10005" lon="2.7165">
        <ele>1532.67</ele>
        <time>2022-07-11T10:46:07Z</time>
      </trkpt>
      <trkpt lat="45.10015" lon="2.71651">
        <ele>1532.33</ele>
        <time>2022-07-11T10:46:16Z</time>
      </trkpt>
      <trkpt lat="45.10018" lon="2.71651">
        <ele>1532.12</ele>
        <time>2022-07-11T10:46:19Z</time>
      </trkpt>
      <trkpt lat="45.10027" lon="2.71654">
        <ele>1531.69</ele>
        <time>2022-07-11T10:46:27Z</time>
      </trkpt>
      <trkpt lat="45.10033" lon="2.71654">
        <ele>1531.2</ele>
        <time>2022-07-11T10:46:32Z</time>
      </trkpt>
      <trkpt lat="45.10047" lon="2.71655">
        <ele>1529.73</ele>
        <time>2022-07-11T10:46:47Z</time>
      </trkpt>
      <trkpt lat="45.10062" lon="2.71656">
        <ele>1528.99</ele>
        <time>2022-07-11T10:47:30Z</time>
      </trkpt>
      <trkpt lat="45.10066" lon="2.71661">
        <ele>1528.77</ele>
        <time>2022-07-11T10:47:34Z</time>
      </trkpt>
      <trkpt lat="45.10086" lon="2.71663">
        <ele>1528.06</ele>
        <time>2022-07-11T10:47:51Z</time>
      </trkpt>
      <trkpt lat="45.10093" lon="2.71668">
        <ele>1528.73</ele>
        <time>2022-07-11T10:47:59Z</time>
      </trkpt>
      <trkpt lat="45.10097" lon="2.71667">
        <ele>1528.95</ele>
        <time>2022-07-11T10:48:03Z</time>
      </trkpt>
      <trkpt lat="45.10108" lon="2.71657">
        <ele>1528.19</ele>
        <time>2022-07-11T10:48:17Z</time>
      </trkpt>
      <trkpt lat="45.10108" lon="2.71658">
        <ele>1528.05</ele>
        <time>2022-07-11T10:48:20Z</time>
      </trkpt>
      <trkpt lat="45.10115" lon="2.71652">
        <ele>1527.65</ele>
        <time>2022-07-11T10:49:07Z</time>
      </trkpt>
      <trkpt lat="45.10121" lon="2.7165">
        <ele>1527.43</ele>
        <time>2022-07-11T10:49:11Z</time>
      </trkpt>
      <trkpt lat="45.10141" lon="2.71642">
        <ele>1527.23</ele>
        <time>2022-07-11T10:49:29Z</time>
      </trkpt>
      <trkpt lat="45.10161" lon="2.71633">
        <ele>1526.95</ele>
        <time>2022-07-11T10:49:46Z</time>
      </trkpt>
      <trkpt lat="45.10181" lon="2.71628">
        <ele>1526.93</ele>
        <time>2022-07-11T10:50:03Z</time>
      </trkpt>
      <trkpt lat="45.10186" lon="2.71629">
        <ele>1527.44</ele>
        <time>2022-07-11T10:50:09Z</time>
      </trkpt>
      <trkpt lat="45.10206" lon="2.71632">
        <ele>1527.77</ele>
        <time>2022-07-11T10:50:26Z</time>
      </trkpt>
      <trkpt lat="45.10223" lon="2.71633">
        <ele>1527.15</ele>
        <time>2022-07-11T10:50:40Z</time>
      </trkpt>
      <trkpt lat="45.10252" lon="2.71638">
        <ele>1526.62</ele>
        <time>2022-07-11T10:51:03Z</time>
      </trkpt>
      <trkpt lat="45.10277" lon="2.71643">
        <ele>1527.41</ele>
        <time>2022-07-11T10:51:24Z</time>
      </trkpt>
      <trkpt lat="45.103" lon="2.71648">
        <ele>1526.79</ele>
        <time>2022-07-11T10:51:43Z</time>
      </trkpt>
      <trkpt lat="45.10309" lon="2.71648">
        <ele>1525.72</ele>
        <time>2022-07-11T10:51:55Z</time>
      </trkpt>
      <trkpt lat="45.1036" lon="2.71616">
        <ele>1532.8</ele>
        <time>2022-07-11T10:53:37Z</time>
      </trkpt>
      <trkpt lat="45.10361" lon="2.71616">
        <ele>1532.84</ele>
        <time>2022-07-11T10:53:38Z</time>
      </trkpt>
      <trkpt lat="45.10377" lon="2.71608">
        <ele>1532.7</ele>
        <time>2022-07-11T10:53:55Z</time>
      </trkpt>
      <trkpt lat="45.10392" lon="2.71597">
        <ele>1531.86</ele>
        <time>2022-07-11T10:54:10Z</time>
      </trkpt>
      <trkpt lat="45.10402" lon="2.71585">
        <ele>1531.28</ele>
        <time>2022-07-11T10:54:22Z</time>
      </trkpt>
      <trkpt lat="45.10401" lon="2.71585">
        <ele>1531.37</ele>
        <time>2022-07-11T10:54:34Z</time>
      </trkpt>
      <trkpt lat="45.10408" lon="2.71575">
        <ele>1530.26</ele>
        <time>2022-07-11T10:55:20Z</time>
      </trkpt>
      <trkpt lat="45.10411" lon="2.71572">
        <ele>1530.39</ele>
        <time>2022-07-11T10:55:26Z</time>
      </trkpt>
      <trkpt lat="45.10413" lon="2.71556">
        <ele>1531.41</ele>
        <time>2022-07-11T10:56:55Z</time>
      </trkpt>
      <trkpt lat="45.10427" lon="2.71524">
        <ele>1532.79</ele>
        <time>2022-07-11T10:57:16Z</time>
      </trkpt>
      <trkpt lat="45.10428" lon="2.71521">
        <ele>1532.94</ele>
        <time>2022-07-11T10:57:21Z</time>
      </trkpt>
      <trkpt lat="45.10435" lon="2.71501">
        <ele>1533.43</ele>
        <time>2022-07-11T10:57:55Z</time>
      </trkpt>
      <trkpt lat="45.10436" lon="2.71496">
        <ele>1533.52</ele>
        <time>2022-07-11T10:58:01Z</time>
      </trkpt>
      <trkpt lat="45.1044" lon="2.71477">
        <ele>1536.34</ele>
        <time>2022-07-11T10:59:21Z</time>
      </trkpt>
      <trkpt lat="45.10446" lon="2.71444">
        <ele>1537.36</ele>
        <time>2022-07-11T10:59:42Z</time>
      </trkpt>
      <trkpt lat="45.1044" lon="2.71428">
        <ele>1540.14</ele>
        <time>2022-07-11T10:59:57Z</time>
      </trkpt>
      <trkpt lat="45.1044" lon="2.71416">
        <ele>1542.87</ele>
        <time>2022-07-11T11:00:09Z</time>
      </trkpt>
      <trkpt lat="45.10441" lon="2.71413">
        <ele>1543.32</ele>
        <time>2022-07-11T11:00:11Z</time>
      </trkpt>
      <trkpt lat="45.10438" lon="2.71378">
        <ele>1543.81</ele>
        <time>2022-07-11T11:00:32Z</time>
      </trkpt>
      <trkpt lat="45.10439" lon="2.71362">
        <ele>1544.13</ele>
        <time>2022-07-11T11:00:43Z</time>
      </trkpt>
      <trkpt lat="45.10439" lon="2.71356">
        <ele>1544.32</ele>
        <time>2022-07-11T11:00:47Z</time>
      </trkpt>
      <trkpt lat="45.10447" lon="2.7133">
        <ele>1545.03</ele>
        <time>2022-07-11T11:01:07Z</time>
      </trkpt>
      <trkpt lat="45.10465" lon="2.71324">
        <ele>1547.69</ele>
        <time>2022-07-11T11:01:26Z</time>
      </trkpt>
      <trkpt lat="45.10485" lon="2.71317">
        <ele>1549.27</ele>
        <time>2022-07-11T11:01:45Z</time>
      </trkpt>
      <trkpt lat="45.10506" lon="2.71302">
        <ele>1550.77</ele>
        <time>2022-07-11T11:02:08Z</time>
      </trkpt>
      <trkpt lat="45.10513" lon="2.71288">
        <ele>1552.93</ele>
        <time>2022-07-11T11:02:23Z</time>
      </trkpt>
      <trkpt lat="45.10529" lon="2.71267">
        <ele>1555.95</ele>
        <time>2022-07-11T11:02:45Z</time>
      </trkpt>
      <trkpt lat="45.10536" lon="2.7125">
        <ele>1558.55</ele>
        <time>2022-07-11T11:03:04Z</time>
      </trkpt>
      <trkpt lat="45.10537" lon="2.71246">
        <ele>1559.59</ele>
        <time>2022-07-11T11:03:10Z</time>
      </trkpt>
      <trkpt lat="45.10537" lon="2.7124">
        <ele>1560.62</ele>
        <time>2022-07-11T11:03:36Z</time>
      </trkpt>
      <trkpt lat="45.1054" lon="2.71234">
        <ele>1560.62</ele>
        <time>2022-07-11T11:03:40Z</time>
      </trkpt>
      <trkpt lat="45.10547" lon="2.71219">
        <ele>1560.95</ele>
        <time>2022-07-11T11:03:53Z</time>
      </trkpt>
      <trkpt lat="45.10554" lon="2.71209">
        <ele>1562.82</ele>
        <time>2022-07-11T11:04:03Z</time>
      </trkpt>
      <trkpt lat="45.10568" lon="2.71198">
        <ele>1564.79</ele>
        <time>2022-07-11T11:04:21Z</time>
      </trkpt>
      <trkpt lat="45.10581" lon="2.71183">
        <ele>1566.93</ele>
        <time>2022-07-11T11:04:40Z</time>
      </trkpt>
      <trkpt lat="45.10581" lon="2.71181">
        <ele>1567.5</ele>
        <time>2022-07-11T11:04:43Z</time>
      </trkpt>
      <trkpt lat="45.10586" lon="2.71165">
        <ele>1570.29</ele>
        <time>2022-07-11T11:04:59Z</time>
      </trkpt>
      <trkpt lat="45.10593" lon="2.71138">
        <ele>1573.25</ele>
        <time>2022-07-11T11:05:21Z</time>
      </trkpt>
      <trkpt lat="45.10603" lon="2.71127">
        <ele>1574.3</ele>
        <time>2022-07-11T11:05:33Z</time>
      </trkpt>
      <trkpt lat="45.10607" lon="2.71122">
        <ele>1574.22</ele>
        <time>2022-07-11T11:05:38Z</time>
      </trkpt>
      <trkpt lat="45.10629" lon="2.7111">
        <ele>1574.07</ele>
        <time>2022-07-11T11:05:59Z</time>
      </trkpt>
      <trkpt lat="45.1063" lon="2.71109">
        <ele>1574.3</ele>
        <time>2022-07-11T11:06:05Z</time>
      </trkpt>
      <trkpt lat="45.10633" lon="2.71107">
        <ele>1575.03</ele>
        <time>2022-07-11T11:06:14Z</time>
      </trkpt>
      <trkpt lat="45.10637" lon="2.71103">
        <ele>1575.11</ele>
        <time>2022-07-11T11:06:18Z</time>
      </trkpt>
      <trkpt lat="45.10655" lon="2.7108">
        <ele>1576.15</ele>
        <time>2022-07-11T11:06:39Z</time>
      </trkpt>
      <trkpt lat="45.10663" lon="2.71074">
        <ele>1577.01</ele>
        <time>2022-07-11T11:06:49Z</time>
      </trkpt>
      <trkpt lat="45.10667" lon="2.71067">
        <ele>1577.66</ele>
        <time>2022-07-11T11:06:56Z</time>
      </trkpt>
      <trkpt lat="45.10671" lon="2.71067">
        <ele>1577.82</ele>
        <time>2022-07-11T11:06:59Z</time>
      </trkpt>
      <trkpt lat="45.10681" lon="2.71043">
        <ele>1578.87</ele>
        <time>2022-07-11T11:07:18Z</time>
      </trkpt>
      <trkpt lat="45.10686" lon="2.71033">
        <ele>1579.28</ele>
        <time>2022-07-11T11:07:30Z</time>
      </trkpt>
      <trkpt lat="45.10686" lon="2.71026">
        <ele>1580.53</ele>
        <time>2022-07-11T11:07:42Z</time>
      </trkpt>
      <trkpt lat="45.10687" lon="2.71017">
        <ele>1580.87</ele>
        <time>2022-07-11T11:07:55Z</time>
      </trkpt>
      <trkpt lat="45.10687" lon="2.70984">
        <ele>1582.09</ele>
        <time>2022-07-11T11:08:25Z</time>
      </trkpt>
      <trkpt lat="45.10684" lon="2.70963">
        <ele>1584.12</ele>
        <time>2022-07-11T11:08:40Z</time>
      </trkpt>
      <trkpt lat="45.10683" lon="2.7096">
        <ele>1584.23</ele>
        <time>2022-07-11T11:08:43Z</time>
      </trkpt>
      <trkpt lat="45.10679" lon="2.70952">
        <ele>1584.64</ele>
        <time>2022-07-11T11:08:54Z</time>
      </trkpt>
      <trkpt lat="45.10674" lon="2.70923">
        <ele>1583.03</ele>
        <time>2022-07-11T11:09:26Z</time>
      </trkpt>
      <trkpt lat="45.10676" lon="2.70919">
        <ele>1583.81</ele>
        <time>2022-07-11T11:09:30Z</time>
      </trkpt>
      <trkpt lat="45.10678" lon="2.70914">
        <ele>1584.83</ele>
        <time>2022-07-11T11:09:34Z</time>
      </trkpt>
      <trkpt lat="45.10679" lon="2.70911">
        <ele>1585.03</ele>
        <time>2022-07-11T11:09:36Z</time>
      </trkpt>
      <trkpt lat="45.10682" lon="2.70905">
        <ele>1585.45</ele>
        <time>2022-07-11T11:09:41Z</time>
      </trkpt>
      <trkpt lat="45.10684" lon="2.70899">
        <ele>1585.5</ele>
        <time>2022-07-11T11:09:45Z</time>
      </trkpt>
      <trkpt lat="45.10696" lon="2.70864">
        <ele>1585.51</ele>
        <time>2022-07-11T11:10:10Z</time>
      </trkpt>
      <trkpt lat="45.10698" lon="2.70851">
        <ele>1586.51</ele>
        <time>2022-07-11T11:10:20Z</time>
      </trkpt>
      <trkpt lat="45.10693" lon="2.7084">
        <ele>1586.97</ele>
        <time>2022-07-11T11:10:27Z</time>
      </trkpt>
      <trkpt lat="45.10689" lon="2.70812">
        <ele>1586.98</ele>
        <time>2022-07-11T11:10:47Z</time>
      </trkpt>
      <trkpt lat="45.10692" lon="2.70787">
        <ele>1586.17</ele>
        <time>2022-07-11T11:11:04Z</time>
      </trkpt>
      <trkpt lat="45.1069" lon="2.70782">
        <ele>1586.05</ele>
        <time>2022-07-11T11:11:08Z</time>
      </trkpt>
      <trkpt lat="45.1069" lon="2.70769">
        <ele>1585.85</ele>
        <time>2022-07-11T11:11:16Z</time>
      </trkpt>
      <trkpt lat="45.10686" lon="2.70756">
        <ele>1585.74</ele>
        <time>2022-07-11T11:11:26Z</time>
      </trkpt>
      <trkpt lat="45.10684" lon="2.70743">
        <ele>1585.59</ele>
        <time>2022-07-11T11:11:34Z</time>
      </trkpt>
      <trkpt lat="45.10683" lon="2.70729">
        <ele>1585.37</ele>
        <time>2022-07-11T11:11:41Z</time>
      </trkpt>
      <trkpt lat="45.10675" lon="2.70703">
        <ele>1585.72</ele>
        <time>2022-07-11T11:11:58Z</time>
      </trkpt>
      <trkpt lat="45.10662" lon="2.70675">
        <ele>1586.75</ele>
        <time>2022-07-11T11:12:16Z</time>
      </trkpt>
      <trkpt lat="45.10648" lon="2.70659">
        <ele>1587.78</ele>
        <time>2022-07-11T11:12:33Z</time>
      </trkpt>
      <trkpt lat="45.10628" lon="2.70642">
        <ele>1588.78</ele>
        <time>2022-07-11T11:12:53Z</time>
      </trkpt>
      <trkpt lat="45.10622" lon="2.70637">
        <ele>1589.43</ele>
        <time>2022-07-11T11:13:02Z</time>
      </trkpt>
      <trkpt lat="45.1062" lon="2.70633">
        <ele>1590.04</ele>
        <time>2022-07-11T11:13:06Z</time>
      </trkpt>
      <trkpt lat="45.10613" lon="2.70624">
        <ele>1591.47</ele>
        <time>2022-07-11T11:13:18Z</time>
      </trkpt>
      <trkpt lat="45.10608" lon="2.70613">
        <ele>1592.03</ele>
        <time>2022-07-11T11:14:44Z</time>
      </trkpt>
      <trkpt lat="45.10596" lon="2.70592">
        <ele>1591.93</ele>
        <time>2022-07-11T11:15:00Z</time>
      </trkpt>
      <trkpt lat="45.10589" lon="2.70581">
        <ele>1594.56</ele>
        <time>2022-07-11T11:15:16Z</time>
      </trkpt>
      <trkpt lat="45.10589" lon="2.7058">
        <ele>1594.96</ele>
        <time>2022-07-11T11:15:17Z</time>
      </trkpt>
      <trkpt lat="45.10587" lon="2.7057">
        <ele>1597.37</ele>
        <time>2022-07-11T11:15:51Z</time>
      </trkpt>
      <trkpt lat="45.10586" lon="2.70539">
        <ele>1597.38</ele>
        <time>2022-07-11T11:16:13Z</time>
      </trkpt>
      <trkpt lat="45.10586" lon="2.70537">
        <ele>1597.42</ele>
        <time>2022-07-11T11:16:14Z</time>
      </trkpt>
      <trkpt lat="45.10588" lon="2.70521">
        <ele>1599.05</ele>
        <time>2022-07-11T11:16:30Z</time>
      </trkpt>
      <trkpt lat="45.10586" lon="2.7046">
        <ele>1606.52</ele>
        <time>2022-07-11T11:17:36Z</time>
      </trkpt>
      <trkpt lat="45.10588" lon="2.70447">
        <ele>1606.95</ele>
        <time>2022-07-11T11:17:44Z</time>
      </trkpt>
      <trkpt lat="45.10582" lon="2.7042">
        <ele>1607.94</ele>
        <time>2022-07-11T11:18:03Z</time>
      </trkpt>
      <trkpt lat="45.1058" lon="2.70414">
        <ele>1608.57</ele>
        <time>2022-07-11T11:18:08Z</time>
      </trkpt>
      <trkpt lat="45.10578" lon="2.70404">
        <ele>1608.85</ele>
        <time>2022-07-11T11:18:17Z</time>
      </trkpt>
      <trkpt lat="45.10572" lon="2.70388">
        <ele>1609.91</ele>
        <time>2022-07-11T11:18:32Z</time>
      </trkpt>
      <trkpt lat="45.10569" lon="2.70382">
        <ele>1610.35</ele>
        <time>2022-07-11T11:18:42Z</time>
      </trkpt>
      <trkpt lat="45.10556" lon="2.70358">
        <ele>1611.82</ele>
        <time>2022-07-11T11:19:01Z</time>
      </trkpt>
      <trkpt lat="45.10556" lon="2.70359">
        <ele>1611.98</ele>
        <time>2022-07-11T11:19:02Z</time>
      </trkpt>
      <trkpt lat="45.1054" lon="2.70326">
        <ele>1616.1</ele>
        <time>2022-07-11T11:19:36Z</time>
      </trkpt>
      <trkpt lat="45.10541" lon="2.70295">
        <ele>1617.05</ele>
        <time>2022-07-11T11:19:56Z</time>
      </trkpt>
      <trkpt lat="45.10546" lon="2.70266">
        <ele>1615.37</ele>
        <time>2022-07-11T11:20:15Z</time>
      </trkpt>
      <trkpt lat="45.10548" lon="2.70264">
        <ele>1615.29</ele>
        <time>2022-07-11T11:20:20Z</time>
      </trkpt>
      <trkpt lat="45.10547" lon="2.70257">
        <ele>1615.09</ele>
        <time>2022-07-11T11:20:29Z</time>
      </trkpt>
      <trkpt lat="45.10546" lon="2.70253">
        <ele>1614.74</ele>
        <time>2022-07-11T11:21:46Z</time>
      </trkpt>
      <trkpt lat="45.10545" lon="2.7024">
        <ele>1614.84</ele>
        <time>2022-07-11T11:21:54Z</time>
      </trkpt>
      <trkpt lat="45.10548" lon="2.70209">
        <ele>1614.36</ele>
        <time>2022-07-11T11:22:13Z</time>
      </trkpt>
      <trkpt lat="45.10552" lon="2.7018">
        <ele>1614.56</ele>
        <time>2022-07-11T11:22:30Z</time>
      </trkpt>
      <trkpt lat="45.10551" lon="2.70159">
        <ele>1615.88</ele>
        <time>2022-07-11T11:22:46Z</time>
      </trkpt>
      <trkpt lat="45.10552" lon="2.70139">
        <ele>1617.54</ele>
        <time>2022-07-11T11:23:00Z</time>
      </trkpt>
      <trkpt lat="45.10551" lon="2.70121">
        <ele>1618.22</ele>
        <time>2022-07-11T11:23:12Z</time>
      </trkpt>
      <trkpt lat="45.1055" lon="2.70115">
        <ele>1618.46</ele>
        <time>2022-07-11T11:23:16Z</time>
      </trkpt>
      <trkpt lat="45.10543" lon="2.70086">
        <ele>1620.13</ele>
        <time>2022-07-11T11:23:37Z</time>
      </trkpt>
      <trkpt lat="45.10544" lon="2.70082">
        <ele>1620.63</ele>
        <time>2022-07-11T11:23:42Z</time>
      </trkpt>
      <trkpt lat="45.10534" lon="2.70035">
        <ele>1628.13</ele>
        <time>2022-07-11T11:28:07Z</time>
      </trkpt>
      <trkpt lat="45.10533" lon="2.70033">
        <ele>1628.12</ele>
        <time>2022-07-11T11:28:08Z</time>
      </trkpt>
      <trkpt lat="45.10518" lon="2.70006">
        <ele>1628.69</ele>
        <time>2022-07-11T11:28:24Z</time>
      </trkpt>
      <trkpt lat="45.10505" lon="2.69984">
        <ele>1630</ele>
        <time>2022-07-11T11:28:36Z</time>
      </trkpt>
      <trkpt lat="45.10496" lon="2.69975">
        <ele>1633.07</ele>
        <time>2022-07-11T11:28:49Z</time>
      </trkpt>
      <trkpt lat="45.10493" lon="2.69973">
        <ele>1633.79</ele>
        <time>2022-07-11T11:28:54Z</time>
      </trkpt>
      <trkpt lat="45.10464" lon="2.69937">
        <ele>1638.11</ele>
        <time>2022-07-11T11:29:42Z</time>
      </trkpt>
      <trkpt lat="45.10447" lon="2.69921">
        <ele>1640.58</ele>
        <time>2022-07-11T11:30:02Z</time>
      </trkpt>
      <trkpt lat="45.10438" lon="2.69916">
        <ele>1640.84</ele>
        <time>2022-07-11T11:30:15Z</time>
      </trkpt>
      <trkpt lat="45.10438" lon="2.69917">
        <ele>1640.78</ele>
        <time>2022-07-11T11:30:17Z</time>
      </trkpt>
      <trkpt lat="45.10414" lon="2.69907">
        <ele>1641.01</ele>
        <time>2022-07-11T11:33:35Z</time>
      </trkpt>
      <trkpt lat="45.10417" lon="2.6989">
        <ele>1640.18</ele>
        <time>2022-07-11T11:33:52Z</time>
      </trkpt>
      <trkpt lat="45.10418" lon="2.69887">
        <ele>1639.67</ele>
        <time>2022-07-11T11:33:57Z</time>
      </trkpt>
      <trkpt lat="45.1042" lon="2.69872">
        <ele>1637.84</ele>
        <time>2022-07-11T11:34:09Z</time>
      </trkpt>
      <trkpt lat="45.10414" lon="2.69847">
        <ele>1635.51</ele>
        <time>2022-07-11T11:34:25Z</time>
      </trkpt>
      <trkpt lat="45.10408" lon="2.69829">
        <ele>1633.55</ele>
        <time>2022-07-11T11:34:42Z</time>
      </trkpt>
      <trkpt lat="45.10406" lon="2.69822">
        <ele>1632.63</ele>
        <time>2022-07-11T11:34:48Z</time>
      </trkpt>
      <trkpt lat="45.10396" lon="2.69794">
        <ele>1630.79</ele>
        <time>2022-07-11T11:35:08Z</time>
      </trkpt>
      <trkpt lat="45.10396" lon="2.69795">
        <ele>1630.33</ele>
        <time>2022-07-11T11:35:11Z</time>
      </trkpt>
      <trkpt lat="45.10394" lon="2.69785">
        <ele>1630.01</ele>
        <time>2022-07-11T11:35:22Z</time>
      </trkpt>
      <trkpt lat="45.10382" lon="2.69742">
        <ele>1630.14</ele>
        <time>2022-07-11T11:35:51Z</time>
      </trkpt>
      <trkpt lat="45.10379" lon="2.69727">
        <ele>1632.58</ele>
        <time>2022-07-11T11:36:05Z</time>
      </trkpt>
      <trkpt lat="45.10377" lon="2.69719">
        <ele>1633.38</ele>
        <time>2022-07-11T11:36:10Z</time>
      </trkpt>
      <trkpt lat="45.10368" lon="2.69687">
        <ele>1634.2</ele>
        <time>2022-07-11T11:36:30Z</time>
      </trkpt>
      <trkpt lat="45.10367" lon="2.69678">
        <ele>1634.06</ele>
        <time>2022-07-11T11:36:38Z</time>
      </trkpt>
      <trkpt lat="45.10363" lon="2.69668">
        <ele>1633.98</ele>
        <time>2022-07-11T11:36:45Z</time>
      </trkpt>
      <trkpt lat="45.10357" lon="2.6964">
        <ele>1633.05</ele>
        <time>2022-07-11T11:37:03Z</time>
      </trkpt>
      <trkpt lat="45.1035" lon="2.69613">
        <ele>1630.26</ele>
        <time>2022-07-11T11:37:20Z</time>
      </trkpt>
      <trkpt lat="45.10342" lon="2.69588">
        <ele>1628.26</ele>
        <time>2022-07-11T11:37:41Z</time>
      </trkpt>
      <trkpt lat="45.10337" lon="2.69575">
        <ele>1625.85</ele>
        <time>2022-07-11T11:38:34Z</time>
      </trkpt>
      <trkpt lat="45.10344" lon="2.69549">
        <ele>1625.77</ele>
        <time>2022-07-11T11:38:47Z</time>
      </trkpt>
      <trkpt lat="45.10342" lon="2.69555">
        <ele>1623.65</ele>
        <time>2022-07-11T11:39:05Z</time>
      </trkpt>
      <trkpt lat="45.10337" lon="2.69576">
        <ele>1624.78</ele>
        <time>2022-07-11T11:39:19Z</time>
      </trkpt>
      <trkpt lat="45.10336" lon="2.6958">
        <ele>1625.59</ele>
        <time>2022-07-11T11:39:26Z</time>
      </trkpt>
      <trkpt lat="45.10342" lon="2.69584">
        <ele>1627.08</ele>
        <time>2022-07-11T12:03:41Z</time>
      </trkpt>
      <trkpt lat="45.10338" lon="2.69579">
        <ele>1627.31</ele>
        <time>2022-07-11T12:04:12Z</time>
      </trkpt>
      <trkpt lat="45.1034" lon="2.69579">
        <ele>1627.23</ele>
        <time>2022-07-11T12:04:16Z</time>
      </trkpt>
      <trkpt lat="45.10342" lon="2.69578">
        <ele>1627.23</ele>
        <time>2022-07-11T12:04:18Z</time>
      </trkpt>
      <trkpt lat="45.10346" lon="2.69573">
        <ele>1626.98</ele>
        <time>2022-07-11T12:04:24Z</time>
      </trkpt>
      <trkpt lat="45.10344" lon="2.6957">
        <ele>1626.88</ele>
        <time>2022-07-11T12:04:27Z</time>
      </trkpt>
      <trkpt lat="45.10344" lon="2.69566">
        <ele>1626.84</ele>
        <time>2022-07-11T12:04:30Z</time>
      </trkpt>
      <trkpt lat="45.10341" lon="2.69557">
        <ele>1626.27</ele>
        <time>2022-07-11T12:04:37Z</time>
      </trkpt>
      <trkpt lat="45.10343" lon="2.69547">
        <ele>1624.58</ele>
        <time>2022-07-11T12:04:47Z</time>
      </trkpt>
      <trkpt lat="45.10264" lon="2.69433">
        <ele>1652.59</ele>
        <time>2022-07-11T12:08:58Z</time>
      </trkpt>
      <trkpt lat="45.10264" lon="2.69432">
        <ele>1652.73</ele>
        <time>2022-07-11T12:08:59Z</time>
      </trkpt>
      <trkpt lat="45.10259" lon="2.69422">
        <ele>1653.8</ele>
        <time>2022-07-11T12:09:08Z</time>
      </trkpt>
      <trkpt lat="45.10255" lon="2.69416">
        <ele>1654.4</ele>
        <time>2022-07-11T12:09:12Z</time>
      </trkpt>
      <trkpt lat="45.10252" lon="2.69412">
        <ele>1655.07</ele>
        <time>2022-07-11T12:09:16Z</time>
      </trkpt>
      <trkpt lat="45.10243" lon="2.69382">
        <ele>1657.98</ele>
        <time>2022-07-11T12:09:37Z</time>
      </trkpt>
      <trkpt lat="45.10237" lon="2.69368">
        <ele>1659.02</ele>
        <time>2022-07-11T12:09:50Z</time>
      </trkpt>
      <trkpt lat="45.10239" lon="2.69352">
        <ele>1659.52</ele>
        <time>2022-07-11T12:10:11Z</time>
      </trkpt>
      <trkpt lat="45.10239" lon="2.69347">
        <ele>1659.62</ele>
        <time>2022-07-11T12:10:15Z</time>
      </trkpt>
      <trkpt lat="45.1024" lon="2.69328">
        <ele>1660.18</ele>
        <time>2022-07-11T12:10:29Z</time>
      </trkpt>
      <trkpt lat="45.10244" lon="2.69309">
        <ele>1660.1</ele>
        <time>2022-07-11T12:10:47Z</time>
      </trkpt>
      <trkpt lat="45.10243" lon="2.69303">
        <ele>1659.82</ele>
        <time>2022-07-11T12:10:52Z</time>
      </trkpt>
      <trkpt lat="45.10244" lon="2.6928">
        <ele>1658.31</ele>
        <time>2022-07-11T12:11:07Z</time>
      </trkpt>
      <trkpt lat="45.10252" lon="2.69246">
        <ele>1658.84</ele>
        <time>2022-07-11T12:11:28Z</time>
      </trkpt>
      <trkpt lat="45.10253" lon="2.69243">
        <ele>1659.1</ele>
        <time>2022-07-11T12:11:30Z</time>
      </trkpt>
      <trkpt lat="45.10259" lon="2.69228">
        <ele>1659.84</ele>
        <time>2022-07-11T12:11:40Z</time>
      </trkpt>
      <trkpt lat="45.10264" lon="2.69214">
        <ele>1660.78</ele>
        <time>2022-07-11T12:11:54Z</time>
      </trkpt>
      <trkpt lat="45.10268" lon="2.69199">
        <ele>1660.38</ele>
        <time>2022-07-11T12:12:10Z</time>
      </trkpt>
      <trkpt lat="45.10269" lon="2.69197">
        <ele>1660.35</ele>
        <time>2022-07-11T12:12:11Z</time>
      </trkpt>
      <trkpt lat="45.1028" lon="2.6916">
        <ele>1659.51</ele>
        <time>2022-07-11T12:12:33Z</time>
      </trkpt>
      <trkpt lat="45.10282" lon="2.69156">
        <ele>1658.88</ele>
        <time>2022-07-11T12:12:40Z</time>
      </trkpt>
      <trkpt lat="45.10287" lon="2.69141">
        <ele>1658.45</ele>
        <time>2022-07-11T12:12:50Z</time>
      </trkpt>
      <trkpt lat="45.10296" lon="2.69117">
        <ele>1657.57</ele>
        <time>2022-07-11T12:13:05Z</time>
      </trkpt>
      <trkpt lat="45.10307" lon="2.69078">
        <ele>1654.75</ele>
        <time>2022-07-11T12:13:29Z</time>
      </trkpt>
      <trkpt lat="45.10318" lon="2.69055">
        <ele>1652.8</ele>
        <time>2022-07-11T12:13:43Z</time>
      </trkpt>
      <trkpt lat="45.10323" lon="2.69029">
        <ele>1650.72</ele>
        <time>2022-07-11T12:13:59Z</time>
      </trkpt>
      <trkpt lat="45.10322" lon="2.69014">
        <ele>1649.76</ele>
        <time>2022-07-11T12:14:11Z</time>
      </trkpt>
      <trkpt lat="45.10321" lon="2.69007">
        <ele>1649.17</ele>
        <time>2022-07-11T12:14:34Z</time>
      </trkpt>
      <trkpt lat="45.10321" lon="2.69005">
        <ele>1649.17</ele>
        <time>2022-07-11T12:14:35Z</time>
      </trkpt>
      <trkpt lat="45.10324" lon="2.68992">
        <ele>1649.17</ele>
        <time>2022-07-11T12:14:43Z</time>
      </trkpt>
      <trkpt lat="45.10323" lon="2.68968">
        <ele>1651.09</ele>
        <time>2022-07-11T12:15:01Z</time>
      </trkpt>
      <trkpt lat="45.10324" lon="2.68967">
        <ele>1651.22</ele>
        <time>2022-07-11T12:15:02Z</time>
      </trkpt>
      <trkpt lat="45.10326" lon="2.68955">
        <ele>1652.4</ele>
        <time>2022-07-11T12:15:12Z</time>
      </trkpt>
      <trkpt lat="45.10335" lon="2.6894">
        <ele>1653.5</ele>
        <time>2022-07-11T12:15:24Z</time>
      </trkpt>
      <trkpt lat="45.10336" lon="2.68935">
        <ele>1653.87</ele>
        <time>2022-07-11T12:15:28Z</time>
      </trkpt>
      <trkpt lat="45.1035" lon="2.68917">
        <ele>1655.23</ele>
        <time>2022-07-11T12:15:44Z</time>
      </trkpt>
      <trkpt lat="45.10353" lon="2.68916">
        <ele>1655.74</ele>
        <time>2022-07-11T12:15:47Z</time>
      </trkpt>
      <trkpt lat="45.10357" lon="2.68909">
        <ele>1656.24</ele>
        <time>2022-07-11T12:15:54Z</time>
      </trkpt>
      <trkpt lat="45.10359" lon="2.68901">
        <ele>1656.71</ele>
        <time>2022-07-11T12:15:59Z</time>
      </trkpt>
      <trkpt lat="45.1037" lon="2.68866">
        <ele>1658.14</ele>
        <time>2022-07-11T12:16:21Z</time>
      </trkpt>
      <trkpt lat="45.10373" lon="2.68844">
        <ele>1657.85</ele>
        <time>2022-07-11T12:16:38Z</time>
      </trkpt>
      <trkpt lat="45.10372" lon="2.68841">
        <ele>1657.77</ele>
        <time>2022-07-11T12:16:40Z</time>
      </trkpt>
      <trkpt lat="45.10369" lon="2.68818">
        <ele>1656.4</ele>
        <time>2022-07-11T12:16:54Z</time>
      </trkpt>
      <trkpt lat="45.10368" lon="2.68808">
        <ele>1655.08</ele>
        <time>2022-07-11T12:17:03Z</time>
      </trkpt>
      <trkpt lat="45.10364" lon="2.68799">
        <ele>1654.17</ele>
        <time>2022-07-11T12:17:09Z</time>
      </trkpt>
      <trkpt lat="45.10364" lon="2.68792">
        <ele>1653.89</ele>
        <time>2022-07-11T12:17:13Z</time>
      </trkpt>
      <trkpt lat="45.10362" lon="2.68772">
        <ele>1652.57</ele>
        <time>2022-07-11T12:17:28Z</time>
      </trkpt>
      <trkpt lat="45.10363" lon="2.68752">
        <ele>1650.18</ele>
        <time>2022-07-11T12:17:40Z</time>
      </trkpt>
      <trkpt lat="45.10364" lon="2.68722">
        <ele>1647.34</ele>
        <time>2022-07-11T12:17:58Z</time>
      </trkpt>
      <trkpt lat="45.10371" lon="2.68694">
        <ele>1644.46</ele>
        <time>2022-07-11T12:18:18Z</time>
      </trkpt>
      <trkpt lat="45.10374" lon="2.6868">
        <ele>1642.53</ele>
        <time>2022-07-11T12:18:28Z</time>
      </trkpt>
      <trkpt lat="45.10377" lon="2.68671">
        <ele>1640.83</ele>
        <time>2022-07-11T12:18:38Z</time>
      </trkpt>
      <trkpt lat="45.10375" lon="2.68656">
        <ele>1638.59</ele>
        <time>2022-07-11T12:18:52Z</time>
      </trkpt>
      <trkpt lat="45.10376" lon="2.68643">
        <ele>1635.16</ele>
        <time>2022-07-11T12:19:05Z</time>
      </trkpt>
      <trkpt lat="45.10375" lon="2.6864">
        <ele>1634.3</ele>
        <time>2022-07-11T12:19:11Z</time>
      </trkpt>
      <trkpt lat="45.10379" lon="2.68557">
        <ele>1631.97</ele>
        <time>2022-07-11T12:31:40Z</time>
      </trkpt>
      <trkpt lat="45.10379" lon="2.68556">
        <ele>1633.02</ele>
        <time>2022-07-11T12:31:46Z</time>
      </trkpt>
      <trkpt lat="45.10384" lon="2.68542">
        <ele>1633.77</ele>
        <time>2022-07-11T12:33:18Z</time>
      </trkpt>
      <trkpt lat="45.10385" lon="2.68538">
        <ele>1634.13</ele>
        <time>2022-07-11T12:33:20Z</time>
      </trkpt>
      <trkpt lat="45.10391" lon="2.68529">
        <ele>1635.52</ele>
        <time>2022-07-11T12:33:27Z</time>
      </trkpt>
      <trkpt lat="45.10404" lon="2.68505">
        <ele>1635.72</ele>
        <time>2022-07-11T12:33:45Z</time>
      </trkpt>
      <trkpt lat="45.1041" lon="2.68477">
        <ele>1634.97</ele>
        <time>2022-07-11T12:34:00Z</time>
      </trkpt>
      <trkpt lat="45.1041" lon="2.68473">
        <ele>1634.68</ele>
        <time>2022-07-11T12:34:03Z</time>
      </trkpt>
      <trkpt lat="45.10413" lon="2.68465">
        <ele>1634.01</ele>
        <time>2022-07-11T12:34:11Z</time>
      </trkpt>
      <trkpt lat="45.10415" lon="2.68461">
        <ele>1633.57</ele>
        <time>2022-07-11T12:34:14Z</time>
      </trkpt>
      <trkpt lat="45.10419" lon="2.68448">
        <ele>1631.79</ele>
        <time>2022-07-11T12:34:24Z</time>
      </trkpt>
      <trkpt lat="45.10426" lon="2.68424">
        <ele>1630.25</ele>
        <time>2022-07-11T12:34:40Z</time>
      </trkpt>
      <trkpt lat="45.10437" lon="2.6841">
        <ele>1629.96</ele>
        <time>2022-07-11T12:34:50Z</time>
      </trkpt>
      <trkpt lat="45.10441" lon="2.684">
        <ele>1629.73</ele>
        <time>2022-07-11T12:34:58Z</time>
      </trkpt>
      <trkpt lat="45.10451" lon="2.6839">
        <ele>1628.7</ele>
        <time>2022-07-11T12:35:11Z</time>
      </trkpt>
      <trkpt lat="45.10451" lon="2.68389">
        <ele>1628.24</ele>
        <time>2022-07-11T12:35:14Z</time>
      </trkpt>
      <trkpt lat="45.10502" lon="2.68301">
        <ele>1610.54</ele>
        <time>2022-07-11T12:37:10Z</time>
      </trkpt>
      <trkpt lat="45.10514" lon="2.68286">
        <ele>1610.58</ele>
        <time>2022-07-11T12:37:24Z</time>
      </trkpt>
      <trkpt lat="45.10518" lon="2.68283">
        <ele>1610.87</ele>
        <time>2022-07-11T12:37:29Z</time>
      </trkpt>
      <trkpt lat="45.1053" lon="2.68274">
        <ele>1613.26</ele>
        <time>2022-07-11T12:37:45Z</time>
      </trkpt>
      <trkpt lat="45.10544" lon="2.68262">
        <ele>1613.87</ele>
        <time>2022-07-11T12:38:01Z</time>
      </trkpt>
      <trkpt lat="45.10552" lon="2.68254">
        <ele>1613.66</ele>
        <time>2022-07-11T12:38:11Z</time>
      </trkpt>
      <trkpt lat="45.10559" lon="2.68243">
        <ele>1611.71</ele>
        <time>2022-07-11T12:38:26Z</time>
      </trkpt>
      <trkpt lat="45.10565" lon="2.68231">
        <ele>1608.91</ele>
        <time>2022-07-11T12:38:40Z</time>
      </trkpt>
      <trkpt lat="45.10573" lon="2.6822">
        <ele>1606.38</ele>
        <time>2022-07-11T12:38:54Z</time>
      </trkpt>
      <trkpt lat="45.10574" lon="2.68218">
        <ele>1605.56</ele>
        <time>2022-07-11T12:38:59Z</time>
      </trkpt>
      <trkpt lat="45.10586" lon="2.68204">
        <ele>1603.1</ele>
        <time>2022-07-11T12:39:15Z</time>
      </trkpt>
      <trkpt lat="45.10599" lon="2.68193">
        <ele>1602.15</ele>
        <time>2022-07-11T12:39:26Z</time>
      </trkpt>
      <trkpt lat="45.1061" lon="2.68181">
        <ele>1602.09</ele>
        <time>2022-07-11T12:39:37Z</time>
      </trkpt>
      <trkpt lat="45.10614" lon="2.68178">
        <ele>1602.19</ele>
        <time>2022-07-11T12:39:40Z</time>
      </trkpt>
      <trkpt lat="45.10623" lon="2.68166">
        <ele>1603.13</ele>
        <time>2022-07-11T12:39:51Z</time>
      </trkpt>
      <trkpt lat="45.10629" lon="2.68162">
        <ele>1603.19</ele>
        <time>2022-07-11T12:39:56Z</time>
      </trkpt>
      <trkpt lat="45.10641" lon="2.68144">
        <ele>1603.13</ele>
        <time>2022-07-11T12:40:12Z</time>
      </trkpt>
      <trkpt lat="45.10647" lon="2.68132">
        <ele>1602.35</ele>
        <time>2022-07-11T12:40:21Z</time>
      </trkpt>
      <trkpt lat="45.10648" lon="2.68126">
        <ele>1602.1</ele>
        <time>2022-07-11T12:40:25Z</time>
      </trkpt>
      <trkpt lat="45.10653" lon="2.68118">
        <ele>1601.99</ele>
        <time>2022-07-11T12:40:31Z</time>
      </trkpt>
      <trkpt lat="45.10655" lon="2.68116">
        <ele>1601.91</ele>
        <time>2022-07-11T12:40:34Z</time>
      </trkpt>
      <trkpt lat="45.10656" lon="2.68113">
        <ele>1601.8</ele>
        <time>2022-07-11T12:40:36Z</time>
      </trkpt>
      <trkpt lat="45.10666" lon="2.68092">
        <ele>1600.28</ele>
        <time>2022-07-11T12:40:51Z</time>
      </trkpt>
      <trkpt lat="45.10667" lon="2.68089">
        <ele>1600.34</ele>
        <time>2022-07-11T12:40:57Z</time>
      </trkpt>
      <trkpt lat="45.10925" lon="2.67664">
        <ele>1754.19</ele>
        <time>2022-07-11T13:00:23Z</time>
      </trkpt>
      <trkpt lat="45.10926" lon="2.67654">
        <ele>1755.76</ele>
        <time>2022-07-11T13:00:33Z</time>
      </trkpt>
      <trkpt lat="45.10937" lon="2.67604">
        <ele>1767.81</ele>
        <time>2022-07-11T13:05:52Z</time>
      </trkpt>
      <trkpt lat="45.10938" lon="2.67587">
        <ele>1765.88</ele>
        <time>2022-07-11T13:06:07Z</time>
      </trkpt>
      <trkpt lat="45.10939" lon="2.67587">
        <ele>1765.87</ele>
        <time>2022-07-11T13:06:08Z</time>
      </trkpt>
      <trkpt lat="45.1094" lon="2.67582">
        <ele>1765.64</ele>
        <time>2022-07-11T13:06:14Z</time>
      </trkpt>
      <trkpt lat="45.10947" lon="2.67575">
        <ele>1765.53</ele>
        <time>2022-07-11T13:06:46Z</time>
      </trkpt>
      <trkpt lat="45.1095" lon="2.6757">
        <ele>1764.8</ele>
        <time>2022-07-11T13:06:54Z</time>
      </trkpt>
      <trkpt lat="45.10956" lon="2.67549">
        <ele>1759.74</ele>
        <time>2022-07-11T13:08:40Z</time>
      </trkpt>
      <trkpt lat="45.10957" lon="2.67547">
        <ele>1759.44</ele>
        <time>2022-07-11T13:08:45Z</time>
      </trkpt>
      <trkpt lat="45.11001" lon="2.67479">
        <ele>1723.16</ele>
        <time>2022-07-11T13:13:18Z</time>
      </trkpt>
      <trkpt lat="45.11002" lon="2.67478">
        <ele>1722.39</ele>
        <time>2022-07-11T13:13:20Z</time>
      </trkpt>
      <trkpt lat="45.11006" lon="2.67479">
        <ele>1719.3</ele>
        <time>2022-07-11T13:13:27Z</time>
      </trkpt>
      <trkpt lat="45.11064" lon="2.67449">
        <ele>1694.64</ele>
        <time>2022-07-11T13:15:14Z</time>
      </trkpt>
      <trkpt lat="45.11065" lon="2.67445">
        <ele>1694.12</ele>
        <time>2022-07-11T13:15:16Z</time>
      </trkpt>
      <trkpt lat="45.1107" lon="2.67431">
        <ele>1691</ele>
        <time>2022-07-11T13:15:24Z</time>
      </trkpt>
      <trkpt lat="45.11072" lon="2.6743">
        <ele>1690.04</ele>
        <time>2022-07-11T13:15:26Z</time>
      </trkpt>
      <trkpt lat="45.11079" lon="2.67422">
        <ele>1686.45</ele>
        <time>2022-07-11T13:15:33Z</time>
      </trkpt>
      <trkpt lat="45.1108" lon="2.67422">
        <ele>1686</ele>
        <time>2022-07-11T13:15:34Z</time>
      </trkpt>
      <trkpt lat="45.11085" lon="2.67418">
        <ele>1683.87</ele>
        <time>2022-07-11T13:15:38Z</time>
      </trkpt>
      <trkpt lat="45.11089" lon="2.67414">
        <ele>1681.41</ele>
        <time>2022-07-11T13:15:42Z</time>
      </trkpt>
      <trkpt lat="45.11098" lon="2.67402">
        <ele>1677.53</ele>
        <time>2022-07-11T13:15:51Z</time>
      </trkpt>
      <trkpt lat="45.11102" lon="2.674">
        <ele>1674.4</ele>
        <time>2022-07-11T13:15:56Z</time>
      </trkpt>
      <trkpt lat="45.11104" lon="2.67396">
        <ele>1672.53</ele>
        <time>2022-07-11T13:16:00Z</time>
      </trkpt>
      <trkpt lat="45.11112" lon="2.67386">
        <ele>1668.29</ele>
        <time>2022-07-11T13:16:09Z</time>
      </trkpt>
      <trkpt lat="45.11115" lon="2.67384">
        <ele>1664.95</ele>
        <time>2022-07-11T13:16:17Z</time>
      </trkpt>
      <trkpt lat="45.11115" lon="2.67383">
        <ele>1664.48</ele>
        <time>2022-07-11T13:16:18Z</time>
      </trkpt>
      <trkpt lat="45.11121" lon="2.6738">
        <ele>1662.39</ele>
        <time>2022-07-11T13:16:23Z</time>
      </trkpt>
      <trkpt lat="45.11128" lon="2.67377">
        <ele>1661.43</ele>
        <time>2022-07-11T13:16:28Z</time>
      </trkpt>
      <trkpt lat="45.11133" lon="2.67376">
        <ele>1660.28</ele>
        <time>2022-07-11T13:16:32Z</time>
      </trkpt>
      <trkpt lat="45.11139" lon="2.67368">
        <ele>1658.66</ele>
        <time>2022-07-11T13:16:38Z</time>
      </trkpt>
      <trkpt lat="45.11148" lon="2.67357">
        <ele>1655.19</ele>
        <time>2022-07-11T13:16:49Z</time>
      </trkpt>
      <trkpt lat="45.11147" lon="2.67356">
        <ele>1654.62</ele>
        <time>2022-07-11T13:16:53Z</time>
      </trkpt>
      <trkpt lat="45.11132" lon="2.67375">
        <ele>1653.49</ele>
        <time>2022-07-11T13:20:02Z</time>
      </trkpt>
      <trkpt lat="45.11118" lon="2.67379">
        <ele>1656.34</ele>
        <time>2022-07-11T13:20:21Z</time>
      </trkpt>
      <trkpt lat="45.11117" lon="2.6738">
        <ele>1658.21</ele>
        <time>2022-07-11T13:20:29Z</time>
      </trkpt>
      <trkpt lat="45.11175" lon="2.67329">
        <ele>1643.8</ele>
        <time>2022-07-11T13:22:40Z</time>
      </trkpt>
      <trkpt lat="45.11182" lon="2.67329">
        <ele>1642.2</ele>
        <time>2022-07-11T13:22:50Z</time>
      </trkpt>
      <trkpt lat="45.11185" lon="2.67328">
        <ele>1641.14</ele>
        <time>2022-07-11T13:22:58Z</time>
      </trkpt>
      <trkpt lat="45.11241" lon="2.67305">
        <ele>1624.32</ele>
        <time>2022-07-11T13:24:21Z</time>
      </trkpt>
      <trkpt lat="45.11254" lon="2.67307">
        <ele>1623.52</ele>
        <time>2022-07-11T13:24:34Z</time>
      </trkpt>
      <trkpt lat="45.11261" lon="2.67295">
        <ele>1621.82</ele>
        <time>2022-07-11T13:24:48Z</time>
      </trkpt>
      <trkpt lat="45.11262" lon="2.67292">
        <ele>1621.27</ele>
        <time>2022-07-11T13:24:51Z</time>
      </trkpt>
      <trkpt lat="45.11267" lon="2.67279">
        <ele>1617.83</ele>
        <time>2022-07-11T13:25:04Z</time>
      </trkpt>
      <trkpt lat="45.11276" lon="2.6727">
        <ele>1614.67</ele>
        <time>2022-07-11T13:25:20Z</time>
      </trkpt>
      <trkpt lat="45.11287" lon="2.6726">
        <ele>1611.73</ele>
        <time>2022-07-11T13:25:36Z</time>
      </trkpt>
      <trkpt lat="45.11293" lon="2.67249">
        <ele>1608.49</ele>
        <time>2022-07-11T13:25:49Z</time>
      </trkpt>
      <trkpt lat="45.11294" lon="2.67248">
        <ele>1607.23</ele>
        <time>2022-07-11T13:25:55Z</time>
      </trkpt>
      <trkpt lat="45.11363" lon="2.67209">
        <ele>1593.78</ele>
        <time>2022-07-11T13:27:13Z</time>
      </trkpt>
      <trkpt lat="45.11379" lon="2.67197">
        <ele>1591.53</ele>
        <time>2022-07-11T13:27:32Z</time>
      </trkpt>
      <trkpt lat="45.11404" lon="2.67183">
        <ele>1584.38</ele>
        <time>2022-07-11T13:28:05Z</time>
      </trkpt>
      <trkpt lat="45.11406" lon="2.67182">
        <ele>1583.39</ele>
        <time>2022-07-11T13:28:11Z</time>
      </trkpt>
      <trkpt lat="45.11407" lon="2.67169">
        <ele>1582.98</ele>
        <time>2022-07-11T13:28:24Z</time>
      </trkpt>
      <trkpt lat="45.1141" lon="2.67167">
        <ele>1582.9</ele>
        <time>2022-07-11T13:28:28Z</time>
      </trkpt>
      <trkpt lat="45.11414" lon="2.67163">
        <ele>1582.66</ele>
        <time>2022-07-11T13:28:33Z</time>
      </trkpt>
      <trkpt lat="45.11421" lon="2.67156">
        <ele>1582.55</ele>
        <time>2022-07-11T13:28:45Z</time>
      </trkpt>
      <trkpt lat="45.11414" lon="2.67165">
        <ele>1582.75</ele>
        <time>2022-07-11T13:29:46Z</time>
      </trkpt>
      <trkpt lat="45.11422" lon="2.67156">
        <ele>1582.61</ele>
        <time>2022-07-11T13:29:59Z</time>
      </trkpt>
      <trkpt lat="45.11421" lon="2.67155">
        <ele>1582.55</ele>
        <time>2022-07-11T13:30:02Z</time>
      </trkpt>
      <trkpt lat="45.11426" lon="2.67157">
        <ele>1582.33</ele>
        <time>2022-07-11T13:30:10Z</time>
      </trkpt>
      <trkpt lat="45.11438" lon="2.67147">
        <ele>1581.42</ele>
        <time>2022-07-11T13:30:24Z</time>
      </trkpt>
      <trkpt lat="45.11449" lon="2.67135">
        <ele>1579.44</ele>
        <time>2022-07-11T13:30:38Z</time>
      </trkpt>
      <trkpt lat="45.11451" lon="2.67133">
        <ele>1579</ele>
        <time>2022-07-11T13:30:40Z</time>
      </trkpt>
      <trkpt lat="45.11467" lon="2.67119">
        <ele>1576.75</ele>
        <time>2022-07-11T13:30:55Z</time>
      </trkpt>
      <trkpt lat="45.11476" lon="2.6711">
        <ele>1575.51</ele>
        <time>2022-07-11T13:31:03Z</time>
      </trkpt>
      <trkpt lat="45.11488" lon="2.67098">
        <ele>1573.91</ele>
        <time>2022-07-11T13:31:16Z</time>
      </trkpt>
      <trkpt lat="45.11499" lon="2.67084">
        <ele>1571.37</ele>
        <time>2022-07-11T13:31:31Z</time>
      </trkpt>
      <trkpt lat="45.11514" lon="2.67064">
        <ele>1568.97</ele>
        <time>2022-07-11T13:31:50Z</time>
      </trkpt>
      <trkpt lat="45.11519" lon="2.67057">
        <ele>1567.89</ele>
        <time>2022-07-11T13:31:59Z</time>
      </trkpt>
      <trkpt lat="45.11527" lon="2.67044">
        <ele>1566.75</ele>
        <time>2022-07-11T13:32:10Z</time>
      </trkpt>
      <trkpt lat="45.11539" lon="2.67026">
        <ele>1564.73</ele>
        <time>2022-07-11T13:32:24Z</time>
      </trkpt>
      <trkpt lat="45.11547" lon="2.67013">
        <ele>1562.71</ele>
        <time>2022-07-11T13:32:37Z</time>
      </trkpt>
      <trkpt lat="45.11561" lon="2.6699">
        <ele>1559.76</ele>
        <time>2022-07-11T13:32:57Z</time>
      </trkpt>
      <trkpt lat="45.11569" lon="2.66977">
        <ele>1558.1</ele>
        <time>2022-07-11T13:33:10Z</time>
      </trkpt>
      <trkpt lat="45.11578" lon="2.66953">
        <ele>1555.46</ele>
        <time>2022-07-11T13:33:27Z</time>
      </trkpt>
      <trkpt lat="45.11583" lon="2.6694">
        <ele>1553.66</ele>
        <time>2022-07-11T13:33:39Z</time>
      </trkpt>
      <trkpt lat="45.11588" lon="2.66934">
        <ele>1552.67</ele>
        <time>2022-07-11T13:33:46Z</time>
      </trkpt>
      <trkpt lat="45.11594" lon="2.66926">
        <ele>1551.41</ele>
        <time>2022-07-11T13:33:52Z</time>
      </trkpt>
      <trkpt lat="45.11602" lon="2.66903">
        <ele>1549.32</ele>
        <time>2022-07-11T13:34:09Z</time>
      </trkpt>
      <trkpt lat="45.11604" lon="2.66898">
        <ele>1548.59</ele>
        <time>2022-07-11T13:34:14Z</time>
      </trkpt>
      <trkpt lat="45.11607" lon="2.66893">
        <ele>1547.58</ele>
        <time>2022-07-11T13:34:19Z</time>
      </trkpt>
      <trkpt lat="45.11613" lon="2.66874">
        <ele>1546.28</ele>
        <time>2022-07-11T13:34:32Z</time>
      </trkpt>
      <trkpt lat="45.11615" lon="2.66871">
        <ele>1545.84</ele>
        <time>2022-07-11T13:34:34Z</time>
      </trkpt>
      <trkpt lat="45.11616" lon="2.66868">
        <ele>1545.28</ele>
        <time>2022-07-11T13:34:37Z</time>
      </trkpt>
      <trkpt lat="45.1162" lon="2.66858">
        <ele>1543.38</ele>
        <time>2022-07-11T13:34:47Z</time>
      </trkpt>
      <trkpt lat="45.11612" lon="2.66875">
        <ele>1543.18</ele>
        <time>2022-07-11T13:35:01Z</time>
      </trkpt>
      <trkpt lat="45.11609" lon="2.66879">
        <ele>1543.89</ele>
        <time>2022-07-11T13:35:05Z</time>
      </trkpt>
      <trkpt lat="45.11607" lon="2.66881">
        <ele>1544.13</ele>
        <time>2022-07-11T13:35:07Z</time>
      </trkpt>
      <trkpt lat="45.11605" lon="2.6688">
        <ele>1544.97</ele>
        <time>2022-07-11T13:35:12Z</time>
      </trkpt>
      <trkpt lat="45.1154" lon="2.66921">
        <ele>1532.7</ele>
        <time>2022-07-11T13:37:26Z</time>
      </trkpt>
      <trkpt lat="45.11536" lon="2.66921">
        <ele>1532.3</ele>
        <time>2022-07-11T13:37:29Z</time>
      </trkpt>
      <trkpt lat="45.11526" lon="2.66919">
        <ele>1529.33</ele>
        <time>2022-07-11T13:37:43Z</time>
      </trkpt>
      <trkpt lat="45.11488" lon="2.66939">
        <ele>1524.42</ele>
        <time>2022-07-11T13:38:47Z</time>
      </trkpt>
      <trkpt lat="45.11483" lon="2.6694">
        <ele>1521.64</ele>
        <time>2022-07-11T13:38:57Z</time>
      </trkpt>
      <trkpt lat="45.11437" lon="2.66968">
        <ele>1514.51</ele>
        <time>2022-07-11T13:39:53Z</time>
      </trkpt>
      <trkpt lat="45.11419" lon="2.66973">
        <ele>1513.17</ele>
        <time>2022-07-11T13:40:08Z</time>
      </trkpt>
      <trkpt lat="45.11407" lon="2.66977">
        <ele>1511.23</ele>
        <time>2022-07-11T13:40:21Z</time>
      </trkpt>
      <trkpt lat="45.11402" lon="2.66978">
        <ele>1510.6</ele>
        <time>2022-07-11T13:40:27Z</time>
      </trkpt>
      <trkpt lat="45.11389" lon="2.66983">
        <ele>1508.44</ele>
        <time>2022-07-11T13:40:44Z</time>
      </trkpt>
      <trkpt lat="45.1138" lon="2.66987">
        <ele>1507.62</ele>
        <time>2022-07-11T13:40:53Z</time>
      </trkpt>
      <trkpt lat="45.11373" lon="2.66986">
        <ele>1506.97</ele>
        <time>2022-07-11T13:40:59Z</time>
      </trkpt>
      <trkpt lat="45.11359" lon="2.66984">
        <ele>1505.25</ele>
        <time>2022-07-11T13:41:12Z</time>
      </trkpt>
      <trkpt lat="45.11304" lon="2.66982">
        <ele>1502.52</ele>
        <time>2022-07-11T13:42:23Z</time>
      </trkpt>
      <trkpt lat="45.11296" lon="2.66989">
        <ele>1502.25</ele>
        <time>2022-07-11T13:42:34Z</time>
      </trkpt>
      <trkpt lat="45.11286" lon="2.66995">
        <ele>1502.19</ele>
        <time>2022-07-11T13:42:47Z</time>
      </trkpt>
      <trkpt lat="45.11277" lon="2.67001">
        <ele>1502.08</ele>
        <time>2022-07-11T13:43:01Z</time>
      </trkpt>
      <trkpt lat="45.11275" lon="2.67002">
        <ele>1502.02</ele>
        <time>2022-07-11T13:43:05Z</time>
      </trkpt>
      <trkpt lat="45.11227" lon="2.66993">
        <ele>1502.03</ele>
        <time>2022-07-11T13:44:01Z</time>
      </trkpt>
      <trkpt lat="45.11215" lon="2.66983">
        <ele>1501.91</ele>
        <time>2022-07-11T13:44:17Z</time>
      </trkpt>
      <trkpt lat="45.11214" lon="2.66982">
        <ele>1501.52</ele>
        <time>2022-07-11T13:44:18Z</time>
      </trkpt>
      <trkpt lat="45.11182" lon="2.66987">
        <ele>1501.16</ele>
        <time>2022-07-11T13:44:52Z</time>
      </trkpt>
      <trkpt lat="45.11175" lon="2.6699">
        <ele>1501.46</ele>
        <time>2022-07-11T13:44:59Z</time>
      </trkpt>
      <trkpt lat="45.11169" lon="2.66989">
        <ele>1501.5</ele>
        <time>2022-07-11T13:45:04Z</time>
      </trkpt>
      <trkpt lat="45.11155" lon="2.66989">
        <ele>1500.82</ele>
        <time>2022-07-11T13:45:17Z</time>
      </trkpt>
      <trkpt lat="45.11137" lon="2.66994">
        <ele>1498.6</ele>
        <time>2022-07-11T13:45:34Z</time>
      </trkpt>
      <trkpt lat="45.11127" lon="2.66997">
        <ele>1496.77</ele>
        <time>2022-07-11T13:45:45Z</time>
      </trkpt>
      <trkpt lat="45.11114" lon="2.67001">
        <ele>1495.61</ele>
        <time>2022-07-11T13:45:59Z</time>
      </trkpt>
      <trkpt lat="45.11112" lon="2.67004">
        <ele>1495.56</ele>
        <time>2022-07-11T13:46:02Z</time>
      </trkpt>
      <trkpt lat="45.11104" lon="2.67008">
        <ele>1496.03</ele>
        <time>2022-07-11T13:46:12Z</time>
      </trkpt>
      <trkpt lat="45.1106" lon="2.67016">
        <ele>1493.66</ele>
        <time>2022-07-11T13:47:12Z</time>
      </trkpt>
      <trkpt lat="45.11056" lon="2.67019">
        <ele>1493.06</ele>
        <time>2022-07-11T13:47:18Z</time>
      </trkpt>
      <trkpt lat="45.1105" lon="2.6702">
        <ele>1492.83</ele>
        <time>2022-07-11T13:47:26Z</time>
      </trkpt>
      <trkpt lat="45.11037" lon="2.67022">
        <ele>1492.18</ele>
        <time>2022-07-11T13:47:39Z</time>
      </trkpt>
      <trkpt lat="45.11026" lon="2.67022">
        <ele>1491.53</ele>
        <time>2022-07-11T13:47:54Z</time>
      </trkpt>
      <trkpt lat="45.11014" lon="2.6702">
        <ele>1489.65</ele>
        <time>2022-07-11T13:48:09Z</time>
      </trkpt>
      <trkpt lat="45.10999" lon="2.67025">
        <ele>1487.9</ele>
        <time>2022-07-11T13:48:30Z</time>
        <extensions>
          <visugpx:TrkExtension xmlns:visugpx="https://www.visugpx.com/editgpx/">
            <visugpx:node>1</visugpx:node>
            </visugpx:TrkExtension>
        </extensions>
      </trkpt>
      <trkpt lat="45.10994" lon="2.67027">
        <ele>1489.2</ele>
      </trkpt>
      <trkpt lat="45.10968" lon="2.67035">
        <ele>1491.8</ele>
      </trkpt>
      <trkpt lat="45.10958" lon="2.67046">
        <ele>1497.2</ele>
      </trkpt>
      <trkpt lat="45.10947" lon="2.67056">
        <ele>1501.4</ele>
      </trkpt>
      <trkpt lat="45.10939" lon="2.67057">
        <ele>1501.9</ele>
      </trkpt>
      <trkpt lat="45.10924" lon="2.6706">
        <ele>1504.1</ele>
      </trkpt>
      <trkpt lat="45.10919" lon="2.67051">
        <ele>1499.6</ele>
      </trkpt>
      <trkpt lat="45.10909" lon="2.67052">
        <ele>1500.2</ele>
      </trkpt>
      <trkpt lat="45.109" lon="2.67046">
        <ele>1497</ele>
      </trkpt>
      <trkpt lat="45.10894" lon="2.67042">
        <ele>1494.8</ele>
      </trkpt>
      <trkpt lat="45.10877" lon="2.67043">
        <ele>1496.5</ele>
      </trkpt>
      <trkpt lat="45.10862" lon="2.67042">
        <ele>1497.6</ele>
      </trkpt>
      <trkpt lat="45.10856" lon="2.67036">
        <ele>1495.7</ele>
      </trkpt>
      <trkpt lat="45.10845" lon="2.67029">
        <ele>1494.2</ele>
      </trkpt>
      <trkpt lat="45.10833" lon="2.67021">
        <ele>1492.4</ele>
      </trkpt>
      <trkpt lat="45.10819" lon="2.67018">
        <ele>1492.4</ele>
      </trkpt>
      <trkpt lat="45.10805" lon="2.67009">
        <ele>1489.5</ele>
      </trkpt>
      <trkpt lat="45.1079" lon="2.67002">
        <ele>1486.5</ele>
      </trkpt>
      <trkpt lat="45.10779" lon="2.67">
        <ele>1486</ele>
      </trkpt>
      <trkpt lat="45.10771" lon="2.66993">
        <ele>1484.6</ele>
      </trkpt>
      <trkpt lat="45.10767" lon="2.6699">
        <ele>1484.3</ele>
        <extensions>
          <visugpx:TrkExtension xmlns:visugpx="https://www.visugpx.com/editgpx/">
            <visugpx:node>2</visugpx:node>
            </visugpx:TrkExtension>
        </extensions>
      </trkpt>
      <trkpt lat="45.10765" lon="2.66988">
        <ele>1484</ele>
      </trkpt>
      <trkpt lat="45.1076" lon="2.66985">
        <ele>1484.1</ele>
      </trkpt>
      <trkpt lat="45.1075" lon="2.66965">
        <ele>1479.4</ele>
      </trkpt>
      <trkpt lat="45.10729" lon="2.66935">
        <ele>1479.7</ele>
      </trkpt>
      <trkpt lat="45.10711" lon="2.66886">
        <ele>1473.1</ele>
      </trkpt>
      <trkpt lat="45.10672" lon="2.66808">
        <ele>1461</ele>
      </trkpt>
      <trkpt lat="45.10652" lon="2.66769">
        <ele>1455.7</ele>
      </trkpt>
      <trkpt lat="45.10638" lon="2.66726">
        <ele>1448.3</ele>
      </trkpt>
      <trkpt lat="45.10614" lon="2.66608">
        <ele>1452</ele>
        <extensions>
          <visugpx:TrkExtension xmlns:visugpx="https://www.visugpx.com/editgpx/">
            <visugpx:node>3</visugpx:node>
            </visugpx:TrkExtension>
        </extensions>
      </trkpt>
      <trkpt lat="45.1059" lon="2.66496">
        <ele>1440.2</ele>
      </trkpt>
      <trkpt lat="45.10541" lon="2.66366">
        <ele>1459.6</ele>
      </trkpt>
      <trkpt lat="45.10536" lon="2.66331">
        <ele>1462.9</ele>
      </trkpt>
      <trkpt lat="45.10539" lon="2.66306">
        <ele>1463.1</ele>
      </trkpt>
      <trkpt lat="45.10547" lon="2.66279">
        <ele>1468.8</ele>
      </trkpt>
      <trkpt lat="45.10547" lon="2.66266">
        <ele>1472.1</ele>
      </trkpt>
      <trkpt lat="45.10546" lon="2.66262">
        <ele>1473.6</ele>
        <extensions>
          <visugpx:TrkExtension xmlns:visugpx="https://www.visugpx.com/editgpx/">
            <visugpx:node>4</visugpx:node>
            </visugpx:TrkExtension>
        </extensions>
      </trkpt>
      <trkpt lat="45.10539" lon="2.66266">
        <ele>1476.1</ele>
      </trkpt>
      <trkpt lat="45.10536" lon="2.66259">
        <ele>1479.1</ele>
      </trkpt>
      <trkpt lat="45.10537" lon="2.66248">
        <ele>1481</ele>
      </trkpt>
      <trkpt lat="45.10536" lon="2.66239">
        <ele>1483</ele>
      </trkpt>
      <trkpt lat="45.10539" lon="2.66225">
        <ele>1484.1</ele>
      </trkpt>
      <trkpt lat="45.10544" lon="2.6621">
        <ele>1484.3</ele>
      </trkpt>
      <trkpt lat="45.10549" lon="2.66195">
        <ele>1484.5</ele>
      </trkpt>
      <trkpt lat="45.10551" lon="2.66176">
        <ele>1487.7</ele>
        <extensions>
          <visugpx:TrkExtension xmlns:visugpx="https://www.visugpx.com/editgpx/">
            <visugpx:node>5</visugpx:node>
            </visugpx:TrkExtension>
        </extensions>
      </trkpt>
      <trkpt lat="45.10545" lon="2.66176">
        <ele>1489.9</ele>
      </trkpt>
      <trkpt lat="45.10536" lon="2.66179">
        <ele>1492.7</ele>
      </trkpt>
      <trkpt lat="45.10518" lon="2.66182">
        <ele>1499.3</ele>
      </trkpt>
      <trkpt lat="45.1051" lon="2.66187">
        <ele>1501.8</ele>
      </trkpt>
      <trkpt lat="45.10491" lon="2.66208">
        <ele>1507.4</ele>
      </trkpt>
      <trkpt lat="45.10488" lon="2.66209">
        <ele>1508.6</ele>
        <extensions>
          <visugpx:TrkExtension xmlns:visugpx="https://www.visugpx.com/editgpx/">
            <visugpx:node>6</visugpx:node>
            </visugpx:TrkExtension>
        </extensions>
      </trkpt>
      <trkpt lat="45.10487" lon="2.6621">
        <ele>1509</ele>
      </trkpt>
      <trkpt lat="45.10484" lon="2.66198">
        <ele>1511.1</ele>
      </trkpt>
      <trkpt lat="45.10478" lon="2.66173">
        <ele>1516.2</ele>
      </trkpt>
      <trkpt lat="45.1048" lon="2.66162">
        <ele>1517.3</ele>
      </trkpt>
      <trkpt lat="45.10481" lon="2.6615">
        <ele>1519.9</ele>
        <extensions>
          <visugpx:TrkExtension xmlns:visugpx="https://www.visugpx.com/editgpx/">
            <visugpx:node>7</visugpx:node>
            </visugpx:TrkExtension>
        </extensions>
      </trkpt>
      <trkpt lat="45.10481" lon="2.66149">
        <ele>1520.1</ele>
      </trkpt>
      <trkpt lat="45.10471" lon="2.66156">
        <ele>1522.1</ele>
      </trkpt>
      <trkpt lat="45.10461" lon="2.66168">
        <ele>1523.7</ele>
      </trkpt>
      <trkpt lat="45.1046" lon="2.66169">
        <ele>1524.1</ele>
        <extensions>
          <visugpx:TrkExtension xmlns:visugpx="https://www.visugpx.com/editgpx/">
            <visugpx:node>8</visugpx:node>
            </visugpx:TrkExtension>
        </extensions>
      </trkpt>
      <trkpt lat="45.10462" lon="2.66172">
        <ele>1522.45</ele>
        <time>2022-07-11T14:18:31Z</time>
      </trkpt>
      <trkpt lat="45.10452" lon="2.66194">
        <ele>1525.2</ele>
        <time>2022-07-11T14:18:48Z</time>
      </trkpt>
      <trkpt lat="45.10441" lon="2.66192">
        <ele>1527.49</ele>
        <time>2022-07-11T14:19:03Z</time>
      </trkpt>
      <trkpt lat="45.10437" lon="2.66179">
        <ele>1529.66</ele>
        <time>2022-07-11T14:19:16Z</time>
      </trkpt>
      <trkpt lat="45.1043" lon="2.6621">
        <ele>1528.58</ele>
        <time>2022-07-11T14:20:37Z</time>
      </trkpt>
      <trkpt lat="45.10426" lon="2.66209">
        <ele>1528.41</ele>
        <time>2022-07-11T14:20:41Z</time>
      </trkpt>
      <trkpt lat="45.10419" lon="2.66205">
        <ele>1527.75</ele>
        <time>2022-07-11T14:20:54Z</time>
      </trkpt>
      <trkpt lat="45.10427" lon="2.66209">
        <ele>1527.61</ele>
        <time>2022-07-11T14:21:39Z</time>
      </trkpt>
      <trkpt lat="45.10428" lon="2.66209">
        <ele>1527.61</ele>
        <time>2022-07-11T14:21:40Z</time>
      </trkpt>
      <trkpt lat="45.10438" lon="2.66204">
        <ele>1527.69</ele>
        <time>2022-07-11T14:21:48Z</time>
      </trkpt>
      <trkpt lat="45.10439" lon="2.66186">
        <ele>1528.84</ele>
        <time>2022-07-11T14:22:01Z</time>
      </trkpt>
      <trkpt lat="45.10437" lon="2.66177">
        <ele>1530.16</ele>
        <time>2022-07-11T14:22:09Z</time>
      </trkpt>
      <trkpt lat="45.10426" lon="2.66183">
        <ele>1530.92</ele>
        <time>2022-07-11T14:22:38Z</time>
      </trkpt>
      <trkpt lat="45.10425" lon="2.66179">
        <ele>1530.28</ele>
        <time>2022-07-11T14:22:42Z</time>
      </trkpt>
      <trkpt lat="45.10426" lon="2.66174">
        <ele>1529.77</ele>
        <time>2022-07-11T14:22:46Z</time>
      </trkpt>
      <trkpt lat="45.10425" lon="2.66156">
        <ele>1527.21</ele>
        <time>2022-07-11T14:23:01Z</time>
      </trkpt>
      <trkpt lat="45.10421" lon="2.66146">
        <ele>1526.1</ele>
        <time>2022-07-11T14:23:08Z</time>
      </trkpt>
      <trkpt lat="45.10415" lon="2.66138">
        <ele>1525.12</ele>
        <time>2022-07-11T14:23:17Z</time>
      </trkpt>
      <trkpt lat="45.10412" lon="2.66136">
        <ele>1525.06</ele>
        <time>2022-07-11T14:23:21Z</time>
      </trkpt>
      <trkpt lat="45.10399" lon="2.66111">
        <ele>1524.33</ele>
        <time>2022-07-11T14:23:42Z</time>
      </trkpt>
      <trkpt lat="45.10389" lon="2.66081">
        <ele>1523.03</ele>
        <time>2022-07-11T14:24:03Z</time>
      </trkpt>
      <trkpt lat="45.10378" lon="2.66048">
        <ele>1522.99</ele>
        <time>2022-07-11T14:24:24Z</time>
      </trkpt>
      <trkpt lat="45.10368" lon="2.66034">
        <ele>1523.02</ele>
        <time>2022-07-11T14:24:41Z</time>
      </trkpt>
      <trkpt lat="45.10345" lon="2.65986">
        <ele>1519.69</ele>
        <time>2022-07-11T14:25:44Z</time>
      </trkpt>
      <trkpt lat="45.10344" lon="2.65985">
        <ele>1519.68</ele>
        <time>2022-07-11T14:25:45Z</time>
      </trkpt>
      <trkpt lat="45.10324" lon="2.65965">
        <ele>1520.15</ele>
        <time>2022-07-11T14:26:07Z</time>
      </trkpt>
      <trkpt lat="45.10309" lon="2.65951">
        <ele>1520.66</ele>
        <time>2022-07-11T14:26:24Z</time>
      </trkpt>
      <trkpt lat="45.10292" lon="2.6593">
        <ele>1523.65</ele>
        <time>2022-07-11T14:26:48Z</time>
      </trkpt>
      <trkpt lat="45.10276" lon="2.65858">
        <ele>1516.84</ele>
        <time>2022-07-11T14:28:56Z</time>
      </trkpt>
      <trkpt lat="45.1027" lon="2.65844">
        <ele>1516.06</ele>
        <time>2022-07-11T14:29:10Z</time>
      </trkpt>
      <trkpt lat="45.10267" lon="2.65835">
        <ele>1515.29</ele>
        <time>2022-07-11T14:29:17Z</time>
      </trkpt>
      <trkpt lat="45.10259" lon="2.65812">
        <ele>1513.15</ele>
        <time>2022-07-11T14:29:38Z</time>
      </trkpt>
      <trkpt lat="45.10258" lon="2.65809">
        <ele>1512.96</ele>
        <time>2022-07-11T14:29:41Z</time>
      </trkpt>
      <trkpt lat="45.10255" lon="2.65804">
        <ele>1512.7</ele>
        <time>2022-07-11T14:29:45Z</time>
      </trkpt>
      <trkpt lat="45.10245" lon="2.65783">
        <ele>1512.38</ele>
        <time>2022-07-11T14:30:04Z</time>
      </trkpt>
      <trkpt lat="45.10244" lon="2.65782">
        <ele>1512.38</ele>
        <time>2022-07-11T14:30:05Z</time>
      </trkpt>
      <trkpt lat="45.1024" lon="2.65773">
        <ele>1512.34</ele>
        <time>2022-07-11T14:30:13Z</time>
      </trkpt>
      <trkpt lat="45.1023" lon="2.65751">
        <ele>1511.05</ele>
        <time>2022-07-11T14:30:32Z</time>
      </trkpt>
      <trkpt lat="45.10226" lon="2.65739">
        <ele>1511.12</ele>
        <time>2022-07-11T14:30:44Z</time>
      </trkpt>
      <trkpt lat="45.1022" lon="2.65734">
        <ele>1511.12</ele>
        <time>2022-07-11T14:30:54Z</time>
      </trkpt>
      <trkpt lat="45.10198" lon="2.65708">
        <ele>1510.92</ele>
        <time>2022-07-11T14:32:31Z</time>
      </trkpt>
      <trkpt lat="45.10197" lon="2.65707">
        <ele>1510.92</ele>
        <time>2022-07-11T14:32:32Z</time>
      </trkpt>
      <trkpt lat="45.10192" lon="2.65701">
        <ele>1510.92</ele>
        <time>2022-07-11T14:32:37Z</time>
      </trkpt>
      <trkpt lat="45.10182" lon="2.65697">
        <ele>1510.48</ele>
        <time>2022-07-11T14:32:48Z</time>
      </trkpt>
      <trkpt lat="45.1018" lon="2.65694">
        <ele>1509.76</ele>
        <time>2022-07-11T14:32:52Z</time>
      </trkpt>
      <trkpt lat="45.10169" lon="2.65695">
        <ele>1509.18</ele>
        <time>2022-07-11T14:33:01Z</time>
      </trkpt>
      <trkpt lat="45.10159" lon="2.65707">
        <ele>1507.39</ele>
        <time>2022-07-11T14:33:17Z</time>
      </trkpt>
      <trkpt lat="45.10152" lon="2.65716">
        <ele>1504.21</ele>
        <time>2022-07-11T14:33:31Z</time>
      </trkpt>
      <trkpt lat="45.10138" lon="2.6572">
        <ele>1501.4</ele>
        <time>2022-07-11T14:33:46Z</time>
      </trkpt>
      <trkpt lat="45.10135" lon="2.65719">
        <ele>1500.85</ele>
        <time>2022-07-11T14:33:49Z</time>
      </trkpt>
      <trkpt lat="45.10133" lon="2.6572">
        <ele>1500.6</ele>
        <time>2022-07-11T14:33:51Z</time>
      </trkpt>
      <trkpt lat="45.10119" lon="2.65724">
        <ele>1498.52</ele>
        <time>2022-07-11T14:34:06Z</time>
      </trkpt>
      <trkpt lat="45.10117" lon="2.65728">
        <ele>1497.31</ele>
        <time>2022-07-11T14:34:10Z</time>
      </trkpt>
      <trkpt lat="45.10105" lon="2.65738">
        <ele>1494.03</ele>
        <time>2022-07-11T14:34:23Z</time>
      </trkpt>
      <trkpt lat="45.10102" lon="2.65743">
        <ele>1492.58</ele>
        <time>2022-07-11T14:34:30Z</time>
      </trkpt>
      <trkpt lat="45.10082" lon="2.65764">
        <ele>1484.14</ele>
        <time>2022-07-11T14:35:04Z</time>
      </trkpt>
      <trkpt lat="45.1008" lon="2.65764">
        <ele>1482.87</ele>
        <time>2022-07-11T14:35:08Z</time>
        <extensions>
          <visugpx:TrkExtension xmlns:visugpx="https://www.visugpx.com/editgpx/">
            <visugpx:node>10</visugpx:node>
            </visugpx:TrkExtension>
        </extensions>
      </trkpt>
      <trkpt lat="45.10078" lon="2.65766">
        <ele>1478</ele>
      </trkpt>
      <trkpt lat="45.10075" lon="2.6577">
        <ele>1475.6</ele>
      </trkpt>
      <trkpt lat="45.10073" lon="2.65773">
        <ele>1473.9</ele>
      </trkpt>
      <trkpt lat="45.10073" lon="2.65777">
        <ele>1472.5</ele>
      </trkpt>
      <trkpt lat="45.10071" lon="2.6578">
        <ele>1471</ele>
      </trkpt>
      <trkpt lat="45.10069" lon="2.65781">
        <ele>1470</ele>
      </trkpt>
      <trkpt lat="45.10068" lon="2.65784">
        <ele>1469</ele>
      </trkpt>
      <trkpt lat="45.10065" lon="2.65787">
        <ele>1467.5</ele>
      </trkpt>
      <trkpt lat="45.10066" lon="2.65792">
        <ele>1466.7</ele>
      </trkpt>
      <trkpt lat="45.10065" lon="2.65795">
        <ele>1465.9</ele>
      </trkpt>
      <trkpt lat="45.10064" lon="2.65798">
        <ele>1465.1</ele>
      </trkpt>
      <trkpt lat="45.10063" lon="2.65802">
        <ele>1464.2</ele>
      </trkpt>
      <trkpt lat="45.1006" lon="2.65805">
        <ele>1463.4</ele>
      </trkpt>
      <trkpt lat="45.10056" lon="2.65811">
        <ele>1461.8</ele>
      </trkpt>
      <trkpt lat="45.10054" lon="2.65814">
        <ele>1460.5</ele>
      </trkpt>
      <trkpt lat="45.10051" lon="2.65816">
        <ele>1458.7</ele>
      </trkpt>
      <trkpt lat="45.10047" lon="2.6582">
        <ele>1456.4</ele>
      </trkpt>
      <trkpt lat="45.10046" lon="2.65827">
        <ele>1455.1</ele>
      </trkpt>
      <trkpt lat="45.10043" lon="2.65832">
        <ele>1453.5</ele>
      </trkpt>
      <trkpt lat="45.1004" lon="2.65833">
        <ele>1452.5</ele>
      </trkpt>
      <trkpt lat="45.10038" lon="2.65833">
        <ele>1452</ele>
      </trkpt>
      <trkpt lat="45.10036" lon="2.65837">
        <ele>1450.4</ele>
      </trkpt>
      <trkpt lat="45.10033" lon="2.65842">
        <ele>1448.4</ele>
      </trkpt>
      <trkpt lat="45.10032" lon="2.65845">
        <ele>1447.5</ele>
      </trkpt>
      <trkpt lat="45.10026" lon="2.65851">
        <ele>1444.7</ele>
      </trkpt>
      <trkpt lat="45.10022" lon="2.65857">
        <ele>1441.2</ele>
      </trkpt>
      <trkpt lat="45.10021" lon="2.65863">
        <ele>1439</ele>
      </trkpt>
      <trkpt lat="45.10024" lon="2.65869">
        <ele>1438.1</ele>
      </trkpt>
      <trkpt lat="45.10016" lon="2.65891">
        <ele>1425.7</ele>
      </trkpt>
      <trkpt lat="45.10012" lon="2.65894">
        <ele>1423.3</ele>
      </trkpt>
      <trkpt lat="45.10007" lon="2.659">
        <ele>1419.6</ele>
      </trkpt>
      <trkpt lat="45.09998" lon="2.659">
        <ele>1416.9</ele>
      </trkpt>
      <trkpt lat="45.09992" lon="2.65905">
        <ele>1411.8</ele>
      </trkpt>
      <trkpt lat="45.09988" lon="2.6591">
        <ele>1407.8</ele>
      </trkpt>
      <trkpt lat="45.09983" lon="2.65913">
        <ele>1404.1</ele>
      </trkpt>
      <trkpt lat="45.09979" lon="2.65915">
        <ele>1401.2</ele>
        <extensions>
          <visugpx:TrkExtension xmlns:visugpx="https://www.visugpx.com/editgpx/">
            <visugpx:node>12</visugpx:node>
            </visugpx:TrkExtension>
        </extensions>
      </trkpt>
      <trkpt lat="45.09975" lon="2.65918">
        <ele>1398.1</ele>
      </trkpt>
      <trkpt lat="45.0997" lon="2.65927">
        <ele>1393.2</ele>
      </trkpt>
      <trkpt lat="45.09964" lon="2.65933">
        <ele>1387.7</ele>
      </trkpt>
      <trkpt lat="45.09957" lon="2.65947">
        <ele>1376.9</ele>
      </trkpt>
      <trkpt lat="45.09954" lon="2.65954">
        <ele>1372</ele>
      </trkpt>
      <trkpt lat="45.09949" lon="2.6596">
        <ele>1366.8</ele>
      </trkpt>
      <trkpt lat="45.09943" lon="2.65963">
        <ele>1362.9</ele>
      </trkpt>
      <trkpt lat="45.09938" lon="2.65969">
        <ele>1359.5</ele>
      </trkpt>
      <trkpt lat="45.09935" lon="2.65974">
        <ele>1356.6</ele>
      </trkpt>
      <trkpt lat="45.09931" lon="2.65978">
        <ele>1353.6</ele>
      </trkpt>
      <trkpt lat="45.09925" lon="2.6599">
        <ele>1347.2</ele>
      </trkpt>
      <trkpt lat="45.09923" lon="2.65994">
        <ele>1345.1</ele>
      </trkpt>
      <trkpt lat="45.09921" lon="2.66013">
        <ele>1339.1</ele>
      </trkpt>
      <trkpt lat="45.09921" lon="2.66024">
        <ele>1336.2</ele>
      </trkpt>
      <trkpt lat="45.09921" lon="2.66039">
        <ele>1331.6</ele>
      </trkpt>
      <trkpt lat="45.09919" lon="2.66047">
        <ele>1328.4</ele>
      </trkpt>
      <trkpt lat="45.09919" lon="2.66068">
        <ele>1322</ele>
      </trkpt>
      <trkpt lat="45.09919" lon="2.66078">
        <ele>1319.1</ele>
      </trkpt>
      <trkpt lat="45.09918" lon="2.66084">
        <ele>1317.1</ele>
      </trkpt>
      <trkpt lat="45.09916" lon="2.66096">
        <ele>1314.4</ele>
      </trkpt>
      <trkpt lat="45.09914" lon="2.66093">
        <ele>1315.4</ele>
        <extensions>
          <visugpx:TrkExtension xmlns:visugpx="https://www.visugpx.com/editgpx/">
            <visugpx:node>13</visugpx:node>
            </visugpx:TrkExtension>
        </extensions>
      </trkpt>
      <trkpt lat="45.09903" lon="2.6608">
        <ele>1320.3</ele>
      </trkpt>
      <trkpt lat="45.09885" lon="2.6606">
        <ele>1326.6</ele>
      </trkpt>
      <trkpt lat="45.09877" lon="2.66053">
        <ele>1327.3</ele>
      </trkpt>
      <trkpt lat="45.09864" lon="2.66045">
        <ele>1327.9</ele>
      </trkpt>
      <trkpt lat="45.09852" lon="2.66044">
        <ele>1326.1</ele>
      </trkpt>
      <trkpt lat="45.09842" lon="2.66047">
        <ele>1323.2</ele>
      </trkpt>
      <trkpt lat="45.09823" lon="2.66046">
        <ele>1322.4</ele>
      </trkpt>
      <trkpt lat="45.09805" lon="2.66042">
        <ele>1324.9</ele>
      </trkpt>
      <trkpt lat="45.09792" lon="2.66041">
        <ele>1325.7</ele>
      </trkpt>
      <trkpt lat="45.09777" lon="2.66038">
        <ele>1327.4</ele>
      </trkpt>
      <trkpt lat="45.09763" lon="2.66041">
        <ele>1327.3</ele>
      </trkpt>
      <trkpt lat="45.09749" lon="2.66051">
        <ele>1324.7</ele>
      </trkpt>
      <trkpt lat="45.0974" lon="2.66058">
        <ele>1322.1</ele>
      </trkpt>
      <trkpt lat="45.0973" lon="2.66066">
        <ele>1319.1</ele>
      </trkpt>
      <trkpt lat="45.09711" lon="2.66091">
        <ele>1312</ele>
      </trkpt>
      <trkpt lat="45.09699" lon="2.66097">
        <ele>1312.5</ele>
      </trkpt>
      <trkpt lat="45.09684" lon="2.66113">
        <ele>1310.6</ele>
      </trkpt>
      <trkpt lat="45.09658" lon="2.66135">
        <ele>1310.1</ele>
      </trkpt>
      <trkpt lat="45.09644" lon="2.66148">
        <ele>1309</ele>
      </trkpt>
      <trkpt lat="45.0963" lon="2.66163">
        <ele>1306.2</ele>
      </trkpt>
      <trkpt lat="45.09616" lon="2.66177">
        <ele>1304.8</ele>
      </trkpt>
      <trkpt lat="45.0961" lon="2.66187">
        <ele>1303.2</ele>
      </trkpt>
      <trkpt lat="45.09606" lon="2.66195">
        <ele>1301.4</ele>
      </trkpt>
      <trkpt lat="45.0959" lon="2.66218">
        <ele>1298.8</ele>
      </trkpt>
      <trkpt lat="45.09578" lon="2.66235">
        <ele>1295.4</ele>
      </trkpt>
      <trkpt lat="45.09558" lon="2.66272">
        <ele>1292</ele>
      </trkpt>
      <trkpt lat="45.09527" lon="2.66309">
        <ele>1285.1</ele>
      </trkpt>
      <trkpt lat="45.09509" lon="2.66324">
        <ele>1275.9</ele>
      </trkpt>
      <trkpt lat="45.095" lon="2.66341">
        <ele>1270.5</ele>
      </trkpt>
      <trkpt lat="45.09501" lon="2.66353">
        <ele>1266.5</ele>
      </trkpt>
      <trkpt lat="45.09497" lon="2.66358">
        <ele>1264.7</ele>
      </trkpt>
      <trkpt lat="45.09487" lon="2.66363">
        <ele>1262.4</ele>
      </trkpt>
      <trkpt lat="45.09473" lon="2.66367">
        <ele>1260.1</ele>
      </trkpt>
      <trkpt lat="45.09462" lon="2.66367">
        <ele>1257.2</ele>
      </trkpt>
      <trkpt lat="45.09452" lon="2.66361">
        <ele>1256.2</ele>
      </trkpt>
      <trkpt lat="45.09446" lon="2.66355">
        <ele>1255.1</ele>
      </trkpt>
      <trkpt lat="45.09436" lon="2.66344">
        <ele>1252.2</ele>
      </trkpt>
      <trkpt lat="45.0943" lon="2.66335">
        <ele>1250.6</ele>
      </trkpt>
      <trkpt lat="45.09424" lon="2.66329">
        <ele>1248.5</ele>
        <extensions>
          <visugpx:TrkExtension xmlns:visugpx="https://www.visugpx.com/editgpx/">
            <visugpx:node>14</visugpx:node>
            </visugpx:TrkExtension>
        </extensions>
      </trkpt>
      <trkpt lat="45.09425" lon="2.66325">
        <ele>1262.69</ele>
        <time>2022-07-11T15:02:31Z</time>
        <extensions>
          <visugpx:TrkExtension xmlns:visugpx="https://www.visugpx.com/editgpx/">
            <visugpx:node>10</visugpx:node>
            </visugpx:TrkExtension>
        </extensions>
      </trkpt>
      <trkpt lat="45.09417" lon="2.66319">
        <ele>1259.52</ele>
        <time>2022-07-11T15:02:44Z</time>
      </trkpt>
      <trkpt lat="45.09412" lon="2.66321">
        <ele>1257.78</ele>
        <time>2022-07-11T15:02:54Z</time>
      </trkpt>
    </trkseg>
  </trk>
</gpx>